Time,TemperatureF,DewpointF,PressureIn,WindDirection,WindDirectionDegrees,WindSpeedMPH,WindSpeedGustMPH,Humidity,HourlyPrecipIn,Conditions,Clouds,dailyrainin,SoftwareType,DateUTC
2013-03-01 00:01:00,34.1,29.8,29.87,NW,313,0.0,0.0,84,0.00,,,0.00,Wunderground v.1.15,2013-03-01 06:01:00,
2013-03-01 00:04:00,34.4,30.1,29.87,NW,313,0.0,0.0,84,0.00,,,0.00,Wunderground v.1.15,2013-03-01 06:04:00,
2013-03-01 00:08:00,34.6,30.0,29.87,NNE,19,0.0,4.0,83,0.00,,,0.00,Wunderground v.1.15,2013-03-01 06:08:00,
2013-03-01 00:09:00,34.7,30.1,29.87,NNW,345,2.0,4.0,83,0.00,,,0.00,Wunderground v.1.15,2013-03-01 06:09:00,
2013-03-01 00:10:00,34.8,29.9,29.87,NNW,344,0.0,4.0,82,0.00,,,0.00,Wunderground v.1.15,2013-03-01 06:10:00,
2013-03-01 00:12:00,35.0,30.1,29.87,North,350,0.0,1.0,82,0.00,,,0.00,Wunderground v.1.15,2013-03-01 06:12:00,
2013-03-01 00:13:00,35.1,30.2,29.87,WNW,296,2.0,2.0,82,0.00,,,0.00,Wunderground v.1.15,2013-03-01 06:13:00,
2013-03-01 00:17:00,35.5,30.2,29.87,NE,51,0.0,2.0,81,0.00,,,0.00,Wunderground v.1.15,2013-03-01 06:17:00,
2013-03-01 00:18:00,35.6,30.3,29.87,NE,51,0.0,2.0,81,0.00,,,0.00,Wunderground v.1.15,2013-03-01 06:18:00,
2013-03-01 00:22:00,35.8,30.2,29.87,West,260,2.0,2.0,80,0.00,,,0.00,Wunderground v.1.15,2013-03-01 06:22:00,
2013-03-01 00:23:00,35.9,30.3,29.87,West,263,0.0,2.0,80,0.00,,,0.00,Wunderground v.1.15,2013-03-01 06:23:00,
2013-03-01 00:25:00,36.0,30.4,29.87,North,9,0.0,2.0,80,0.00,,,0.00,Wunderground v.1.15,2013-03-01 06:25:00,
2013-03-01 00:28:00,36.1,30.2,29.87,NNW,333,0.0,2.0,79,0.00,,,0.00,Wunderground v.1.15,2013-03-01 06:28:00,
2013-03-01 00:29:00,36.1,30.2,29.87,NNW,333,0.0,2.0,79,0.00,,,0.00,Wunderground v.1.15,2013-03-01 06:29:00,
2013-03-01 00:30:00,36.2,30.6,29.87,NNW,333,0.0,2.0,80,0.00,,,0.00,Wunderground v.1.15,2013-03-01 06:30:00,
2013-03-01 00:31:00,36.2,30.6,29.87,NNW,333,0.0,2.0,80,0.00,,,0.00,Wunderground v.1.15,2013-03-01 06:31:00,
2013-03-01 00:35:00,36.3,30.4,29.87,NW,318,0.0,1.0,79,0.00,,,0.00,Wunderground v.1.15,2013-03-01 06:35:00,
2013-03-01 00:36:00,36.3,30.7,29.87,NW,319,0.0,1.0,80,0.00,,,0.00,Wunderground v.1.15,2013-03-01 06:36:00,
2013-03-01 00:41:00,36.4,30.5,29.87,WNW,296,8.0,8.0,79,0.00,,,0.00,Wunderground v.1.15,2013-03-01 06:41:00,
2013-03-01 00:42:00,36.4,30.2,29.88,NW,322,1.0,1.0,78,0.00,,,0.00,Wunderground v.1.15,2013-03-01 06:42:00,
2013-03-01 00:43:00,36.4,30.2,29.88,NW,325,2.0,2.0,78,0.00,,,0.00,Wunderground v.1.15,2013-03-01 06:43:00,
2013-03-01 00:47:00,36.4,29.9,29.88,North,355,0.0,2.0,77,0.00,,,0.00,Wunderground v.1.15,2013-03-01 06:47:00,
2013-03-01 00:48:00,36.4,29.9,29.88,WNW,298,5.0,5.0,77,0.00,,,0.00,Wunderground v.1.15,2013-03-01 06:48:00,
2013-03-01 00:49:00,36.4,29.9,29.88,NW,311,0.0,5.0,77,0.00,,,0.00,Wunderground v.1.15,2013-03-01 06:49:00,
2013-03-01 00:53:00,36.3,29.8,29.88,NW,310,0.0,1.0,77,0.00,,,0.00,Wunderground v.1.15,2013-03-01 06:53:00,
2013-03-01 00:56:00,36.3,29.8,29.88,NW,308,2.0,2.0,77,0.00,,,0.00,Wunderground v.1.15,2013-03-01 06:56:00,
2013-03-01 00:58:00,36.3,29.8,29.88,NW,317,0.0,2.0,77,0.00,,,0.00,Wunderground v.1.15,2013-03-01 06:58:00,
2013-03-01 01:00:00,36.2,29.7,29.88,NNE,23,0.0,2.0,77,0.00,,,0.00,Wunderground v.1.15,2013-03-01 07:00:00,
2013-03-01 01:01:00,36.2,29.7,29.88,NNE,22,0.0,2.0,77,0.00,,,0.00,Wunderground v.1.15,2013-03-01 07:01:00,
2013-03-01 01:03:00,36.2,29.7,29.88,North,355,0.0,0.0,77,0.00,,,0.00,Wunderground v.1.15,2013-03-01 07:03:00,
2013-03-01 01:04:00,36.1,29.6,29.88,WNW,291,5.0,5.0,77,0.00,,,0.00,Wunderground v.1.15,2013-03-01 07:04:00,
2013-03-01 01:08:00,36.0,29.2,29.88,NNE,16,1.0,5.0,76,0.00,,,0.00,Wunderground v.1.15,2013-03-01 07:08:00,
2013-03-01 01:09:00,36.0,29.2,29.88,NNW,348,0.0,5.0,76,0.00,,,0.00,Wunderground v.1.15,2013-03-01 07:09:00,
2013-03-01 01:10:00,36.0,29.2,29.88,NNW,331,0.0,5.0,76,0.00,,,0.00,Wunderground v.1.15,2013-03-01 07:10:00,
2013-03-01 01:12:00,35.9,29.1,29.88,NNW,340,1.0,1.0,76,0.00,,,0.00,Wunderground v.1.15,2013-03-01 07:12:00,
2013-03-01 01:15:00,35.8,29.0,29.88,North,355,0.0,8.0,76,0.00,,,0.00,Wunderground v.1.15,2013-03-01 07:15:00,
2013-03-01 01:16:00,35.7,28.9,29.88,North,350,0.0,8.0,76,0.00,,,0.00,Wunderground v.1.15,2013-03-01 07:16:00,
2013-03-01 01:17:00,35.7,28.9,29.88,NNE,24,0.0,8.0,76,0.00,,,0.00,Wunderground v.1.15,2013-03-01 07:17:00,
2013-03-01 01:18:00,35.7,28.9,29.88,NNW,333,0.0,8.0,76,0.00,,,0.00,Wunderground v.1.15,2013-03-01 07:18:00,
2013-03-01 01:22:00,35.5,29.0,29.88,NW,307,0.0,1.0,77,0.00,,,0.00,Wunderground v.1.15,2013-03-01 07:22:00,
2013-03-01 01:23:00,35.5,29.0,29.88,North,349,1.0,1.0,77,0.00,,,0.00,Wunderground v.1.15,2013-03-01 07:23:00,
2013-03-01 01:25:00,35.4,28.9,29.88,South,184,0.0,1.0,77,0.00,,,0.00,Wunderground v.1.15,2013-03-01 07:25:00,
2013-03-01 01:28:00,35.4,28.9,29.88,NNW,341,0.0,1.0,77,0.00,,,0.00,Wunderground v.1.15,2013-03-01 07:28:00,
2013-03-01 01:29:00,35.3,28.8,29.88,WNW,298,4.0,4.0,77,0.00,,,0.00,Wunderground v.1.15,2013-03-01 07:29:00,
2013-03-01 01:31:00,35.3,28.8,29.88,WNW,286,2.0,4.0,77,0.00,,,0.00,Wunderground v.1.15,2013-03-01 07:31:00,
2013-03-01 01:34:00,35.2,28.7,29.88,NNE,13,0.0,1.0,77,0.00,,,0.00,Wunderground v.1.15,2013-03-01 07:34:00,
2013-03-01 01:35:00,35.2,28.7,29.88,NNE,13,0.0,1.0,77,0.00,,,0.00,Wunderground v.1.15,2013-03-01 07:35:00,
2013-03-01 01:36:00,35.2,28.7,29.88,NNW,340,0.0,1.0,77,0.00,,,0.00,Wunderground v.1.15,2013-03-01 07:36:00,
2013-03-01 01:39:00,35.1,28.6,29.88,NNW,338,0.0,1.0,77,0.00,,,0.00,Wunderground v.1.15,2013-03-01 07:39:00,
2013-03-01 01:44:00,35.0,28.8,29.88,NNW,331,1.0,1.0,78,0.00,,,0.00,Wunderground v.1.15,2013-03-01 07:44:00,
2013-03-01 01:45:00,35.0,28.8,29.88,NNW,331,0.0,1.0,78,0.00,,,0.00,Wunderground v.1.15,2013-03-01 07:45:00,
2013-03-01 01:46:00,34.9,28.7,29.88,NNW,331,0.0,1.0,78,0.00,,,0.00,Wunderground v.1.15,2013-03-01 07:46:00,
2013-03-01 01:47:00,34.9,28.7,29.88,NNW,332,0.0,1.0,78,0.00,,,0.00,Wunderground v.1.15,2013-03-01 07:47:00,
2013-03-01 01:50:00,34.8,28.6,29.88,NNW,332,0.0,1.0,78,0.00,,,0.00,Wunderground v.1.15,2013-03-01 07:50:00,
2013-03-01 01:51:00,34.7,28.5,29.88,NNW,332,0.0,1.0,78,0.00,,,0.00,Wunderground v.1.15,2013-03-01 07:51:00,
2013-03-01 01:53:00,34.6,28.4,29.88,NNW,332,0.0,0.0,78,0.00,,,0.00,Wunderground v.1.15,2013-03-01 07:53:00,
2013-03-01 01:57:00,34.5,28.7,29.88,WNW,296,0.0,0.0,79,0.00,,,0.00,Wunderground v.1.15,2013-03-01 07:57:00,
2013-03-01 01:58:00,34.4,28.6,29.88,WNW,296,0.0,0.0,79,0.00,,,0.00,Wunderground v.1.15,2013-03-01 07:58:00,
2013-03-01 02:03:00,34.4,28.9,29.88,NW,309,1.0,1.0,80,0.00,,,0.00,Wunderground v.1.15,2013-03-01 08:03:00,
2013-03-01 02:04:00,34.4,28.9,29.88,NW,309,0.0,1.0,80,0.00,,,0.00,Wunderground v.1.15,2013-03-01 08:04:00,
2013-03-01 02:08:00,34.4,28.9,29.88,NW,315,0.0,1.0,80,0.00,,,0.00,Wunderground v.1.15,2013-03-01 08:08:00,
2013-03-01 02:09:00,34.4,28.9,29.88,NW,315,0.0,1.0,80,0.00,,,0.00,Wunderground v.1.15,2013-03-01 08:09:00,
2013-03-01 02:13:00,34.4,28.9,29.88,NW,316,0.0,0.0,80,0.00,,,0.00,Wunderground v.1.15,2013-03-01 08:13:00,
2013-03-01 02:14:00,34.4,28.9,29.88,NW,316,0.0,0.0,80,0.00,,,0.00,Wunderground v.1.15,2013-03-01 08:14:00,
2013-03-01 02:18:00,34.4,28.9,29.88,NW,316,0.0,0.0,80,0.00,,,0.00,Wunderground v.1.15,2013-03-01 08:18:00,
2013-03-01 02:19:00,34.4,28.9,29.87,NW,316,0.0,0.0,80,0.00,,,0.00,Wunderground v.1.15,2013-03-01 08:19:00,
2013-03-01 02:23:00,34.4,28.9,29.87,NW,326,1.0,4.0,80,0.00,,,0.00,Wunderground v.1.15,2013-03-01 08:23:00,
2013-03-01 02:24:00,34.4,28.9,29.87,NW,326,2.0,4.0,80,0.00,,,0.00,Wunderground v.1.15,2013-03-01 08:24:00,
2013-03-01 02:28:00,34.6,29.1,29.87,WNW,301,0.0,4.0,80,0.00,,,0.00,Wunderground v.1.15,2013-03-01 08:28:00,
2013-03-01 02:29:00,34.6,29.1,29.87,NNW,344,0.0,4.0,80,0.00,,,0.00,Wunderground v.1.15,2013-03-01 08:29:00,
2013-03-01 02:30:00,34.7,29.2,29.87,North,355,0.0,4.0,80,0.00,,,0.00,Wunderground v.1.15,2013-03-01 08:30:00,
2013-03-01 02:33:00,34.8,29.0,29.87,WNW,302,0.0,1.0,79,0.00,,,0.00,Wunderground v.1.15,2013-03-01 08:33:00,
2013-03-01 02:34:00,34.8,29.3,29.87,WNW,303,0.0,1.0,80,0.00,,,0.00,Wunderground v.1.15,2013-03-01 08:34:00,
2013-03-01 02:35:00,34.8,29.3,29.87,WNW,303,0.0,1.0,80,0.00,,,0.00,Wunderground v.1.15,2013-03-01 08:35:00,
2013-03-01 02:38:00,35.0,29.1,29.87,WNW,303,0.0,4.0,79,0.00,,,0.00,Wunderground v.1.15,2013-03-01 08:38:00,
2013-03-01 02:40:00,35.0,29.1,29.87,WNW,303,0.0,4.0,79,0.00,,,0.00,Wunderground v.1.15,2013-03-01 08:40:00,
2013-03-01 02:44:00,35.1,29.2,29.87,NNW,333,0.0,0.0,79,0.00,,,0.00,Wunderground v.1.15,2013-03-01 08:44:00,
2013-03-01 02:45:00,35.1,29.2,29.87,NNW,333,0.0,0.0,79,0.00,,,0.00,Wunderground v.1.15,2013-03-01 08:45:00,
2013-03-01 02:46:00,35.1,29.2,29.87,NNW,333,0.0,0.0,79,0.00,,,0.00,Wunderground v.1.15,2013-03-01 08:46:00,
2013-03-01 02:49:00,35.1,29.2,29.87,NW,319,0.0,2.0,79,0.00,,,0.00,Wunderground v.1.15,2013-03-01 08:49:00,
2013-03-01 02:51:00,35.1,29.2,29.87,NW,319,0.0,2.0,79,0.00,,,0.00,Wunderground v.1.15,2013-03-01 08:51:00,
2013-03-01 02:52:00,35.1,29.2,29.87,NW,319,0.0,2.0,79,0.00,,,0.00,Wunderground v.1.15,2013-03-01 08:52:00,
2013-03-01 02:54:00,35.1,29.2,29.87,NW,319,0.0,0.0,79,0.00,,,0.00,Wunderground v.1.15,2013-03-01 08:54:00,
2013-03-01 02:56:00,35.1,29.2,29.87,NW,319,0.0,0.0,79,0.00,,,0.00,Wunderground v.1.15,2013-03-01 08:56:00,
2013-03-01 02:57:00,35.1,29.2,29.87,NW,319,0.0,0.0,79,0.00,,,0.00,Wunderground v.1.15,2013-03-01 08:57:00,
2013-03-01 02:59:00,35.1,29.2,29.87,NNW,339,0.0,2.0,79,0.00,,,0.00,Wunderground v.1.15,2013-03-01 08:59:00,
2013-03-01 03:01:00,35.1,29.2,29.87,NNW,339,0.0,2.0,79,0.00,,,0.00,Wunderground v.1.15,2013-03-01 09:01:00,
2013-03-01 03:02:00,35.1,29.2,29.87,NNW,338,0.0,2.0,79,0.00,,,0.00,Wunderground v.1.15,2013-03-01 09:02:00,
2013-03-01 03:05:00,35.2,29.3,29.86,North,349,0.0,2.0,79,0.00,,,0.00,Wunderground v.1.15,2013-03-01 09:05:00,
2013-03-01 03:06:00,35.2,29.3,29.86,NW,325,0.0,2.0,79,0.00,,,0.00,Wunderground v.1.15,2013-03-01 09:06:00,
2013-03-01 03:07:00,35.2,29.3,29.86,NW,325,0.0,2.0,79,0.00,,,0.00,Wunderground v.1.15,2013-03-01 09:07:00,
2013-03-01 03:10:00,35.2,29.3,29.86,NW,323,0.0,2.0,79,0.00,,,0.00,Wunderground v.1.15,2013-03-01 09:10:00,
2013-03-01 03:12:00,35.2,29.3,29.86,NW,323,2.0,7.0,79,0.00,,,0.00,Wunderground v.1.15,2013-03-01 09:12:00,
2013-03-01 03:15:00,35.3,29.4,29.86,NNW,336,3.0,4.0,79,0.00,,,0.00,Wunderground v.1.15,2013-03-01 09:15:00,
2013-03-01 03:17:00,35.3,29.4,29.86,NNW,338,2.0,4.0,79,0.00,,,0.00,Wunderground v.1.15,2013-03-01 09:17:00,
2013-03-01 03:18:00,35.3,29.1,29.86,NNW,340,0.0,4.0,78,0.00,,,0.00,Wunderground v.1.15,2013-03-01 09:18:00,
2013-03-01 03:21:00,35.3,29.4,29.86,NNW,327,0.0,4.0,79,0.00,,,0.00,Wunderground v.1.15,2013-03-01 09:21:00,
2013-03-01 03:22:00,35.3,29.4,29.86,NNW,328,0.0,1.0,79,0.00,,,0.00,Wunderground v.1.15,2013-03-01 09:22:00,
2013-03-01 03:23:00,35.3,29.4,29.87,NNW,327,0.0,1.0,79,0.00,,,0.00,Wunderground v.1.15,2013-03-01 09:23:00,
2013-03-01 03:26:00,35.4,29.5,29.87,NNW,328,0.0,1.0,79,0.00,,,0.00,Wunderground v.1.15,2013-03-01 09:26:00,
2013-03-01 03:28:00,35.4,29.5,29.87,North,360,1.0,3.0,79,0.00,,,0.00,Wunderground v.1.15,2013-03-01 09:28:00,
2013-03-01 03:31:00,35.4,29.5,29.87,NNW,333,0.0,4.0,79,0.00,,,0.00,Wunderground v.1.15,2013-03-01 09:31:00,
2013-03-01 03:33:00,35.4,29.5,29.87,NW,313,2.0,2.0,79,0.00,,,0.00,Wunderground v.1.15,2013-03-01 09:33:00,
2013-03-01 03:36:00,35.4,29.5,29.87,NE,55,2.0,2.0,79,0.00,,,0.00,Wunderground v.1.15,2013-03-01 09:36:00,
2013-03-01 03:38:00,35.4,29.5,29.87,NNW,337,0.0,3.0,79,0.00,,,0.00,Wunderground v.1.15,2013-03-01 09:38:00,
2013-03-01 03:41:00,35.4,29.5,29.87,NW,323,0.0,3.0,79,0.00,,,0.00,Wunderground v.1.15,2013-03-01 09:41:00,
2013-03-01 03:43:00,35.4,29.5,29.87,NW,307,0.0,2.0,79,0.00,,,0.00,Wunderground v.1.15,2013-03-01 09:43:00,
2013-03-01 03:44:00,35.4,29.5,29.87,NW,307,0.0,2.0,79,0.00,,,0.00,Wunderground v.1.15,2013-03-01 09:44:00,
2013-03-01 03:46:00,35.4,29.5,29.87,NNE,17,0.0,2.0,79,0.00,,,0.00,Wunderground v.1.15,2013-03-01 09:46:00,
2013-03-01 03:49:00,35.4,29.5,29.87,NNE,17,0.0,2.0,79,0.00,,,0.00,Wunderground v.1.15,2013-03-01 09:49:00,
2013-03-01 03:52:00,35.4,29.5,29.87,NNE,17,0.0,2.0,79,0.00,,,0.00,Wunderground v.1.15,2013-03-01 09:52:00,
2013-03-01 03:54:00,35.4,29.5,29.87,NNE,17,0.0,0.0,79,0.00,,,0.00,Wunderground v.1.15,2013-03-01 09:54:00,
2013-03-01 03:55:00,35.4,29.8,29.87,NNE,17,0.0,0.0,80,0.00,,,0.00,Wunderground v.1.15,2013-03-01 09:55:00,
2013-03-01 03:57:00,35.4,29.8,29.87,NNW,336,0.0,0.0,80,0.00,,,0.00,Wunderground v.1.15,2013-03-01 09:57:00,
2013-03-01 03:59:00,35.4,29.5,29.87,NNW,336,0.0,0.0,79,0.00,,,0.00,Wunderground v.1.15,2013-03-01 09:59:00,
2013-03-01 04:00:00,35.4,29.5,29.87,NNW,335,0.0,0.0,79,0.00,,,0.00,Wunderground v.1.15,2013-03-01 10:00:00,
2013-03-01 04:02:00,35.4,29.8,29.87,NW,315,0.0,2.0,80,0.00,,,0.00,Wunderground v.1.15,2013-03-01 10:02:00,
2013-03-01 04:04:00,35.4,29.8,29.87,NW,315,0.0,0.0,80,0.00,,,0.00,Wunderground v.1.15,2013-03-01 10:04:00,
2013-03-01 04:05:00,35.4,29.8,29.87,NW,316,0.0,0.0,80,0.00,,,0.00,Wunderground v.1.15,2013-03-01 10:05:00,
2013-03-01 04:07:00,35.4,29.8,29.87,NW,304,0.0,0.0,80,0.00,,,0.00,Wunderground v.1.15,2013-03-01 10:07:00,
2013-03-01 04:09:00,35.4,29.8,29.86,North,360,0.0,1.0,80,0.00,,,0.00,Wunderground v.1.15,2013-03-01 10:09:00,
2013-03-01 04:10:00,35.4,29.8,29.87,NW,311,1.0,4.0,80,0.00,,,0.00,Wunderground v.1.15,2013-03-01 10:10:00,
2013-03-01 04:12:00,35.4,29.8,29.86,North,360,1.0,1.0,80,0.00,,,0.00,Wunderground v.1.15,2013-03-01 10:12:00,
2013-03-01 04:14:00,35.4,29.8,29.87,North,355,0.0,1.0,80,0.00,,,0.00,Wunderground v.1.15,2013-03-01 10:14:00,
2013-03-01 04:15:00,35.4,29.8,29.87,North,355,0.0,1.0,80,0.00,,,0.00,Wunderground v.1.15,2013-03-01 10:15:00,
2013-03-01 04:16:00,35.4,29.8,29.87,North,355,0.0,1.0,80,0.00,,,0.00,Wunderground v.1.15,2013-03-01 10:16:00,
2013-03-01 04:17:00,35.4,29.8,29.87,NW,313,0.0,3.0,80,0.00,,,0.00,Wunderground v.1.15,2013-03-01 10:17:00,
2013-03-01 04:20:00,35.4,29.8,29.87,NW,313,0.0,3.0,80,0.00,,,0.00,Wunderground v.1.15,2013-03-01 10:20:00,
2013-03-01 04:21:00,35.4,29.8,29.87,NW,313,0.0,3.0,80,0.00,,,0.00,Wunderground v.1.15,2013-03-01 10:21:00,
2013-03-01 04:22:00,35.4,29.8,29.87,NW,313,0.0,0.0,80,0.00,,,0.00,Wunderground v.1.15,2013-03-01 10:22:00,
2013-03-01 04:25:00,35.3,29.7,29.87,NW,313,0.0,0.0,80,0.00,,,0.00,Wunderground v.1.15,2013-03-01 10:25:00,
2013-03-01 04:26:00,35.3,29.7,29.87,NW,313,0.0,0.0,80,0.00,,,0.00,Wunderground v.1.15,2013-03-01 10:26:00,
2013-03-01 04:28:00,35.3,29.7,29.87,NW,313,0.0,2.0,80,0.00,,,0.00,Wunderground v.1.15,2013-03-01 10:28:00,
2013-03-01 04:30:00,35.3,29.7,29.87,NW,313,0.0,2.0,80,0.00,,,0.00,Wunderground v.1.15,2013-03-01 10:30:00,
2013-03-01 04:31:00,35.3,29.7,29.87,NW,313,0.0,2.0,80,0.00,,,0.00,Wunderground v.1.15,2013-03-01 10:31:00,
2013-03-01 04:33:00,35.3,29.7,29.87,NW,313,0.0,0.0,80,0.00,,,0.00,Wunderground v.1.15,2013-03-01 10:33:00,
2013-03-01 04:35:00,35.3,29.7,29.87,NW,313,0.0,0.0,80,0.00,,,0.00,Wunderground v.1.15,2013-03-01 10:35:00,
2013-03-01 04:36:00,35.3,29.7,29.87,NW,313,0.0,0.0,80,0.00,,,0.00,Wunderground v.1.15,2013-03-01 10:36:00,
2013-03-01 04:37:00,35.3,29.7,29.87,NW,313,0.0,0.0,80,0.00,,,0.00,Wunderground v.1.15,2013-03-01 10:37:00,
2013-03-01 04:38:00,35.3,30.1,29.87,NW,313,0.0,0.0,81,0.00,,,0.00,Wunderground v.1.15,2013-03-01 10:38:00,
2013-03-01 04:41:00,35.3,30.1,29.87,NW,313,0.0,0.0,81,0.00,,,0.00,Wunderground v.1.15,2013-03-01 10:41:00,
2013-03-01 04:42:00,35.3,30.1,29.87,NW,313,0.0,0.0,81,0.00,,,0.00,Wunderground v.1.15,2013-03-01 10:42:00,
2013-03-01 04:43:00,35.3,30.1,29.87,NW,313,0.0,0.0,81,0.00,,,0.00,Wunderground v.1.15,2013-03-01 10:43:00,
2013-03-01 04:46:00,35.3,30.1,29.87,NW,313,0.0,0.0,81,0.00,,,0.00,Wunderground v.1.15,2013-03-01 10:46:00,
2013-03-01 04:47:00,35.3,30.1,29.87,NW,313,0.0,0.0,81,0.00,,,0.00,Wunderground v.1.15,2013-03-01 10:47:00,
2013-03-01 04:49:00,35.3,30.1,29.87,NW,313,0.0,0.0,81,0.00,,,0.00,Wunderground v.1.15,2013-03-01 10:49:00,
2013-03-01 04:52:00,35.3,30.1,29.87,NW,313,0.0,0.0,81,0.00,,,0.00,Wunderground v.1.15,2013-03-01 10:52:00,
2013-03-01 04:54:00,35.3,30.1,29.87,NW,313,0.0,0.0,81,0.00,,,0.00,Wunderground v.1.15,2013-03-01 10:54:00,
2013-03-01 04:57:00,35.3,30.1,29.87,NW,313,0.0,0.0,81,0.00,,,0.00,Wunderground v.1.15,2013-03-01 10:57:00,
2013-03-01 04:58:00,35.3,30.1,29.87,NW,313,0.0,0.0,81,0.00,,,0.00,Wunderground v.1.15,2013-03-01 10:58:00,
2013-03-01 05:00:00,35.3,30.1,29.87,NW,312,0.0,2.0,81,0.00,,,0.00,Wunderground v.1.15,2013-03-01 11:00:00,
2013-03-01 05:02:00,35.3,30.1,29.87,NW,312,0.0,0.0,81,0.00,,,0.00,Wunderground v.1.15,2013-03-01 11:02:00,
2013-03-01 05:03:00,35.3,30.1,29.87,NW,312,0.0,0.0,81,0.00,,,0.00,Wunderground v.1.15,2013-03-01 11:03:00,
2013-03-01 05:05:00,35.3,30.1,29.87,NNW,327,0.0,3.0,81,0.00,,,0.00,Wunderground v.1.15,2013-03-01 11:05:00,
2013-03-01 05:07:00,35.3,30.1,29.87,NNW,338,0.0,3.0,81,0.00,,,0.00,Wunderground v.1.15,2013-03-01 11:07:00,
2013-03-01 05:08:00,35.3,30.1,29.87,NE,34,0.0,3.0,81,0.00,,,0.00,Wunderground v.1.15,2013-03-01 11:08:00,
2013-03-01 05:10:00,35.3,30.1,29.87,NE,34,0.0,3.0,81,0.00,,,0.00,Wunderground v.1.15,2013-03-01 11:10:00,
2013-03-01 05:12:00,35.3,30.1,29.87,NNE,24,0.0,0.0,81,0.00,,,0.00,Wunderground v.1.15,2013-03-01 11:12:00,
2013-03-01 05:13:00,35.3,30.1,29.87,NNE,24,0.0,0.0,81,0.00,,,0.00,Wunderground v.1.15,2013-03-01 11:13:00,
2013-03-01 05:15:00,35.3,30.1,29.87,NNE,24,0.0,0.0,81,0.00,,,0.00,Wunderground v.1.15,2013-03-01 11:15:00,
2013-03-01 05:17:00,35.3,30.1,29.87,NW,306,0.0,3.0,81,0.00,,,0.00,Wunderground v.1.15,2013-03-01 11:17:00,
2013-03-01 05:18:00,35.3,30.1,29.87,NW,306,0.0,3.0,81,0.00,,,0.00,Wunderground v.1.15,2013-03-01 11:18:00,
2013-03-01 05:19:00,35.3,30.1,29.87,NW,306,0.0,3.0,81,0.00,,,0.00,Wunderground v.1.15,2013-03-01 11:19:00,
2013-03-01 05:20:00,35.3,30.1,29.87,NW,306,0.0,3.0,81,0.00,,,0.00,Wunderground v.1.15,2013-03-01 11:20:00,
2013-03-01 05:22:00,35.3,30.1,29.87,NW,306,0.0,0.0,81,0.00,,,0.00,Wunderground v.1.15,2013-03-01 11:22:00,
2013-03-01 05:24:00,35.3,30.1,29.87,NW,306,0.0,0.0,81,0.00,,,0.00,Wunderground v.1.15,2013-03-01 11:24:00,
2013-03-01 05:25:00,35.3,30.1,29.87,NW,306,0.0,0.0,81,0.00,,,0.00,Wunderground v.1.15,2013-03-01 11:25:00,
2013-03-01 05:27:00,35.2,30.0,29.87,NW,306,0.0,0.0,81,0.00,,,0.00,Wunderground v.1.15,2013-03-01 11:27:00,
2013-03-01 05:29:00,35.3,30.1,29.87,NW,306,0.0,0.0,81,0.00,,,0.00,Wunderground v.1.15,2013-03-01 11:29:00,
2013-03-01 05:31:00,35.2,29.6,29.87,NW,306,3.0,3.0,80,0.00,,,0.00,Wunderground v.1.15,2013-03-01 11:31:00,
2013-03-01 05:33:00,35.2,29.6,29.87,North,349,1.0,1.0,80,0.00,,,0.00,Wunderground v.1.15,2013-03-01 11:33:00,
2013-03-01 05:34:00,35.2,29.6,29.87,NNW,348,0.0,1.0,80,0.00,,,0.00,Wunderground v.1.15,2013-03-01 11:34:00,
2013-03-01 05:35:00,35.2,29.6,29.87,NNW,348,0.0,1.0,80,0.00,,,0.00,Wunderground v.1.15,2013-03-01 11:35:00,
2013-03-01 05:36:00,35.2,29.6,29.87,NNW,348,0.0,1.0,80,0.00,,,0.00,Wunderground v.1.15,2013-03-01 11:36:00,
2013-03-01 05:38:00,35.2,29.6,29.87,NW,325,0.0,1.0,80,0.00,,,0.00,Wunderground v.1.15,2013-03-01 11:38:00,
2013-03-01 05:39:00,35.2,29.3,29.87,NW,325,0.0,1.0,79,0.00,,,0.00,Wunderground v.1.15,2013-03-01 11:39:00,
2013-03-01 05:40:00,35.2,29.3,29.88,NW,325,0.0,1.0,79,0.00,,,0.00,Wunderground v.1.15,2013-03-01 11:40:00,
2013-03-01 05:41:00,35.2,29.3,29.88,NW,325,0.0,1.0,79,0.00,,,0.00,Wunderground v.1.15,2013-03-01 11:41:00,
2013-03-01 05:43:00,35.2,29.3,29.88,NW,325,0.0,0.0,79,0.00,,,0.00,Wunderground v.1.15,2013-03-01 11:43:00,
2013-03-01 05:44:00,35.2,29.3,29.88,NW,321,0.0,0.0,79,0.00,,,0.00,Wunderground v.1.15,2013-03-01 11:44:00,
2013-03-01 05:45:00,35.2,29.3,29.88,NNE,26,1.0,3.0,79,0.00,,,0.00,Wunderground v.1.15,2013-03-01 11:45:00,
2013-03-01 05:47:00,35.2,29.3,29.88,NW,319,0.0,4.0,79,0.00,,,0.00,Wunderground v.1.15,2013-03-01 11:47:00,
2013-03-01 05:49:00,35.2,29.3,29.88,NW,319,0.0,4.0,79,0.00,,,0.00,Wunderground v.1.15,2013-03-01 11:49:00,
2013-03-01 05:50:00,35.2,29.3,29.88,NW,319,0.0,4.0,79,0.00,,,0.00,Wunderground v.1.15,2013-03-01 11:50:00,
2013-03-01 05:52:00,35.2,29.3,29.88,NW,319,0.0,4.0,79,0.00,,,0.00,Wunderground v.1.15,2013-03-01 11:52:00,
2013-03-01 05:55:00,35.2,29.6,29.88,NW,319,0.0,0.0,80,0.00,,,0.00,Wunderground v.1.15,2013-03-01 11:55:00,
2013-03-01 05:56:00,35.2,29.3,29.88,NW,319,0.0,1.0,79,0.00,,,0.00,Wunderground v.1.15,2013-03-01 11:56:00,
2013-03-01 05:57:00,35.2,29.3,29.88,NW,311,0.0,2.0,79,0.00,,,0.00,Wunderground v.1.15,2013-03-01 11:57:00,
2013-03-01 06:00:00,35.2,29.3,29.88,NNW,333,0.0,3.0,79,0.00,,,0.00,Wunderground v.1.15,2013-03-01 12:00:00,
2013-03-01 06:01:00,35.2,29.3,29.88,NNW,333,0.0,3.0,79,0.00,,,0.00,Wunderground v.1.15,2013-03-01 12:01:00,
2013-03-01 06:02:00,35.2,29.3,29.88,NNW,331,2.0,2.0,79,0.00,,,0.00,Wunderground v.1.15,2013-03-01 12:02:00,
2013-03-01 06:06:00,35.2,29.3,29.88,NNW,330,0.0,2.0,79,0.00,,,0.00,Wunderground v.1.15,2013-03-01 12:06:00,
2013-03-01 06:07:00,35.2,29.3,29.88,NNW,330,0.0,2.0,79,0.00,,,0.00,Wunderground v.1.15,2013-03-01 12:07:00,
2013-03-01 06:11:00,35.1,29.2,29.88,NNW,341,4.0,6.0,79,0.00,,,0.00,Wunderground v.1.15,2013-03-01 12:11:00,
2013-03-01 06:12:00,35.1,29.2,29.88,NW,325,5.0,5.0,79,0.00,,,0.00,Wunderground v.1.15,2013-03-01 12:12:00,
2013-03-01 06:17:00,35.1,29.2,29.88,NNW,340,0.0,5.0,79,0.00,,,0.00,Wunderground v.1.15,2013-03-01 12:17:00,
2013-03-01 06:22:00,35.1,29.2,29.88,NW,315,0.0,1.0,79,0.00,,,0.00,Wunderground v.1.15,2013-03-01 12:22:00,
2013-03-01 06:23:00,35.1,29.2,29.88,NW,315,0.0,1.0,79,0.00,,,0.00,Wunderground v.1.15,2013-03-01 12:23:00,
2013-03-01 06:27:00,35.1,29.2,29.88,NW,316,0.0,3.0,79,0.00,,,0.00,Wunderground v.1.15,2013-03-01 12:27:00,
2013-03-01 06:28:00,35.1,29.2,29.88,NW,315,0.0,3.0,79,0.00,,,0.00,Wunderground v.1.15,2013-03-01 12:28:00,
2013-03-01 06:33:00,35.1,29.2,29.88,NW,314,0.0,0.0,79,0.00,,,0.00,Wunderground v.1.15,2013-03-01 12:33:00,
2013-03-01 06:38:00,35.1,29.2,29.89,NW,314,2.0,3.0,79,0.00,,,0.00,Wunderground v.1.15,2013-03-01 12:38:00,
2013-03-01 06:39:00,35.1,29.2,29.89,NW,314,1.0,3.0,79,0.00,,,0.00,Wunderground v.1.15,2013-03-01 12:39:00,
2013-03-01 06:43:00,35.1,29.2,29.88,North,5,0.0,0.0,79,0.00,,,0.00,Wunderground v.1.15,2013-03-01 12:43:00,
2013-03-01 06:44:00,35.1,29.2,29.88,North,360,0.0,0.0,79,0.00,,,0.00,Wunderground v.1.15,2013-03-01 12:44:00,
2013-03-01 06:48:00,35.0,29.1,29.88,North,11,0.0,4.0,79,0.00,,,0.00,Wunderground v.1.15,2013-03-01 12:48:00,
2013-03-01 06:49:00,35.0,29.1,29.88,ENE,63,0.0,4.0,79,0.00,,,0.00,Wunderground v.1.15,2013-03-01 12:49:00,
2013-03-01 06:50:00,35.0,29.1,29.88,WNW,284,7.0,7.0,79,0.00,,,0.00,Wunderground v.1.15,2013-03-01 12:50:00,
2013-03-01 06:53:00,35.0,29.1,29.88,NW,304,0.0,1.0,79,0.00,,,0.00,Wunderground v.1.15,2013-03-01 12:53:00,
2013-03-01 06:54:00,35.0,29.1,29.88,NW,304,0.0,1.0,79,0.00,,,0.00,Wunderground v.1.15,2013-03-01 12:54:00,
2013-03-01 06:58:00,35.0,29.1,29.88,NW,304,0.0,3.0,79,0.00,,,0.00,Wunderground v.1.15,2013-03-01 12:58:00,
2013-03-01 06:59:00,35.0,29.1,29.88,NW,304,0.0,3.0,79,0.00,,,0.00,Wunderground v.1.15,2013-03-01 12:59:00,
2013-03-01 07:00:00,35.0,29.1,29.88,NW,309,2.0,4.0,79,0.00,,,0.00,Wunderground v.1.15,2013-03-01 13:00:00,
2013-03-01 07:03:00,35.0,29.1,29.88,NW,315,2.0,3.0,79,0.00,,,0.00,Wunderground v.1.15,2013-03-01 13:03:00,
2013-03-01 07:04:00,35.0,29.1,29.88,North,360,2.0,3.0,79,0.00,,,0.00,Wunderground v.1.15,2013-03-01 13:04:00,
2013-03-01 07:05:00,35.0,29.1,29.88,WNW,297,0.0,3.0,79,0.00,,,0.00,Wunderground v.1.15,2013-03-01 13:05:00,
2013-03-01 07:08:00,35.0,29.1,29.88,WNW,296,0.0,3.0,79,0.00,,,0.00,Wunderground v.1.15,2013-03-01 13:08:00,
2013-03-01 07:10:00,34.9,29.0,29.88,NW,304,0.0,4.0,79,0.00,,,0.00,Wunderground v.1.15,2013-03-01 13:10:00,
2013-03-01 07:13:00,34.9,29.0,29.88,NNW,337,3.0,3.0,79,0.00,,,0.00,Wunderground v.1.15,2013-03-01 13:13:00,
2013-03-01 07:15:00,34.9,29.0,29.88,NW,324,2.0,4.0,79,0.00,,,0.00,Wunderground v.1.15,2013-03-01 13:15:00,
2013-03-01 07:16:00,34.9,29.0,29.88,NNW,341,4.0,4.0,79,0.00,,,0.00,Wunderground v.1.15,2013-03-01 13:16:00,
2013-03-01 07:19:00,34.9,29.0,29.89,NNE,22,0.0,4.0,79,0.00,,,0.00,Wunderground v.1.15,2013-03-01 13:19:00,
2013-03-01 07:21:00,35.0,29.5,29.88,NNW,327,0.0,4.0,80,0.00,,,0.00,Wunderground v.1.15,2013-03-01 13:21:00,
2013-03-01 07:24:00,35.0,29.1,29.88,WNW,297,0.0,2.0,79,0.00,,,0.00,Wunderground v.1.15,2013-03-01 13:24:00,
2013-03-01 07:26:00,35.0,29.1,29.88,NNE,13,0.0,2.0,79,0.00,,,0.00,Wunderground v.1.15,2013-03-01 13:26:00,
2013-03-01 07:27:00,35.0,29.1,29.89,NNW,333,5.0,5.0,79,0.00,,,0.00,Wunderground v.1.15,2013-03-01 13:27:00,
2013-03-01 07:30:00,35.0,29.1,29.89,NW,323,3.0,6.0,79,0.00,,,0.00,Wunderground v.1.15,2013-03-01 13:30:00,
2013-03-01 07:31:00,35.0,29.1,29.89,NW,304,0.0,6.0,79,0.00,,,0.00,Wunderground v.1.15,2013-03-01 13:31:00,
2013-03-01 07:32:00,35.0,29.1,29.89,NW,304,0.0,1.0,79,0.00,,,0.00,Wunderground v.1.15,2013-03-01 13:32:00,
2013-03-01 07:35:00,35.0,29.1,29.89,WNW,302,3.0,3.0,79,0.00,,,0.00,Wunderground v.1.15,2013-03-01 13:35:00,
2013-03-01 07:37:00,35.1,29.2,29.89,NNW,329,0.0,3.0,79,0.00,,,0.00,Wunderground v.1.15,2013-03-01 13:37:00,
2013-03-01 07:39:00,35.1,29.2,29.89,NW,321,0.0,3.0,79,0.00,,,0.00,Wunderground v.1.15,2013-03-01 13:39:00,
2013-03-01 07:40:00,35.1,29.2,29.89,NW,321,0.0,3.0,79,0.00,,,0.00,Wunderground v.1.15,2013-03-01 13:40:00,
2013-03-01 07:42:00,35.1,29.2,29.89,NW,313,0.0,0.0,79,0.00,,,0.00,Wunderground v.1.15,2013-03-01 13:42:00,
2013-03-01 07:44:00,35.1,29.2,29.89,WNW,302,0.0,2.0,79,0.00,,,0.00,Wunderground v.1.15,2013-03-01 13:44:00,
2013-03-01 07:46:00,35.1,29.6,29.89,WNW,302,0.0,2.0,80,0.00,,,0.00,Wunderground v.1.15,2013-03-01 13:46:00,
2013-03-01 07:47:00,35.1,29.6,29.89,WNW,302,0.0,2.0,80,0.00,,,0.00,Wunderground v.1.15,2013-03-01 13:47:00,
2013-03-01 07:48:00,35.1,29.6,29.90,NW,311,0.0,2.0,80,0.00,,,0.00,Wunderground v.1.15,2013-03-01 13:48:00,
2013-03-01 07:49:00,35.1,29.6,29.90,NW,314,0.0,4.0,80,0.00,,,0.00,Wunderground v.1.15,2013-03-01 13:49:00,
2013-03-01 07:51:00,35.1,29.2,29.90,WNW,303,0.0,4.0,79,0.00,,,0.00,Wunderground v.1.15,2013-03-01 13:51:00,
2013-03-01 07:52:00,35.1,29.6,29.90,WNW,303,0.0,1.0,80,0.00,,,0.00,Wunderground v.1.15,2013-03-01 13:52:00,
2013-03-01 07:53:00,35.1,29.6,29.90,WNW,303,0.0,1.0,80,0.00,,,0.00,Wunderground v.1.15,2013-03-01 13:53:00,
2013-03-01 07:54:00,35.1,29.2,29.90,NNW,327,2.0,3.0,79,0.00,,,0.00,Wunderground v.1.15,2013-03-01 13:54:00,
2013-03-01 07:57:00,35.1,29.6,29.90,NW,320,0.0,3.0,80,0.00,,,0.00,Wunderground v.1.15,2013-03-01 13:57:00,
2013-03-01 07:58:00,35.1,29.6,29.90,North,355,1.0,3.0,80,0.00,,,0.00,Wunderground v.1.15,2013-03-01 13:58:00,
2013-03-01 07:59:00,35.1,29.6,29.90,NNW,336,0.0,3.0,80,0.00,,,0.00,Wunderground v.1.15,2013-03-01 13:59:00,
2013-03-01 08:02:00,35.1,29.2,29.90,NNW,340,1.0,1.0,79,0.00,,,0.00,Wunderground v.1.15,2013-03-01 14:02:00,
2013-03-01 08:03:00,35.1,29.2,29.90,NNW,340,0.0,1.0,79,0.00,,,0.00,Wunderground v.1.15,2013-03-01 14:03:00,
2013-03-01 08:05:00,35.2,29.3,29.90,NW,309,0.0,3.0,79,0.00,,,0.00,Wunderground v.1.15,2013-03-01 14:05:00,
2013-03-01 08:07:00,35.2,29.3,29.90,NW,311,3.0,4.0,79,0.00,,,0.00,Wunderground v.1.15,2013-03-01 14:07:00,
2013-03-01 08:08:00,35.2,29.3,29.90,NNW,330,3.0,6.0,79,0.00,,,0.00,Wunderground v.1.15,2013-03-01 14:08:00,
2013-03-01 08:09:00,35.2,29.3,29.90,NNW,330,2.0,6.0,79,0.00,,,0.00,Wunderground v.1.15,2013-03-01 14:09:00,
2013-03-01 08:10:00,35.2,29.3,29.90,WNW,296,5.0,6.0,79,0.00,,,0.00,Wunderground v.1.15,2013-03-01 14:10:00,
2013-03-01 08:12:00,35.1,29.2,29.90,NW,322,1.0,3.0,79,0.00,,,0.00,Wunderground v.1.15,2013-03-01 14:12:00,
2013-03-01 08:14:00,35.2,29.3,29.90,NNW,336,2.0,3.0,79,0.00,,,0.00,Wunderground v.1.15,2013-03-01 14:14:00,
2013-03-01 08:15:00,35.2,29.0,29.90,NNW,329,0.0,4.0,78,0.00,,,0.00,Wunderground v.1.15,2013-03-01 14:15:00,
2013-03-01 08:18:00,35.2,29.3,29.91,NW,315,0.0,6.0,79,0.00,,,0.00,Wunderground v.1.15,2013-03-01 14:18:00,
2013-03-01 08:19:00,35.2,29.3,29.90,NW,315,1.0,6.0,79,0.00,,,0.00,Wunderground v.1.15,2013-03-01 14:19:00,
2013-03-01 08:21:00,35.2,29.3,29.90,NW,315,0.0,6.0,79,0.00,,,0.00,Wunderground v.1.15,2013-03-01 14:21:00,
2013-03-01 08:23:00,35.2,29.3,29.90,NW,321,0.0,3.0,79,0.00,,,0.00,Wunderground v.1.15,2013-03-01 14:23:00,
2013-03-01 08:24:00,35.2,29.3,29.91,NW,321,1.0,3.0,79,0.00,,,0.00,Wunderground v.1.15,2013-03-01 14:24:00,
2013-03-01 08:26:00,35.2,29.3,29.91,NW,323,2.0,5.0,79,0.00,,,0.00,Wunderground v.1.15,2013-03-01 14:26:00,
2013-03-01 08:28:00,35.3,29.1,29.91,NW,311,0.0,5.0,78,0.00,,,0.00,Wunderground v.1.15,2013-03-01 14:28:00,
2013-03-01 08:29:00,35.3,29.1,29.91,NW,325,0.0,5.0,78,0.00,,,0.00,Wunderground v.1.15,2013-03-01 14:29:00,
2013-03-01 08:31:00,35.3,29.4,29.91,NW,319,0.0,5.0,79,0.00,,,0.00,Wunderground v.1.15,2013-03-01 14:31:00,
2013-03-01 08:34:00,35.3,29.4,29.91,WNW,300,2.0,4.0,79,0.00,,,0.00,Wunderground v.1.15,2013-03-01 14:34:00,
2013-03-01 08:37:00,35.4,29.2,29.91,NW,320,0.0,4.0,78,0.00,,,0.00,Wunderground v.1.15,2013-03-01 14:37:00,
2013-03-01 08:39:00,35.5,29.6,29.91,NW,320,2.0,4.0,79,0.00,,,0.00,Wunderground v.1.15,2013-03-01 14:39:00,
2013-03-01 08:40:00,35.5,29.3,29.91,NW,304,0.0,4.0,78,0.00,,,0.00,Wunderground v.1.15,2013-03-01 14:40:00,
2013-03-01 08:42:00,35.5,29.6,29.91,NW,304,0.0,1.0,79,0.00,,,0.00,Wunderground v.1.15,2013-03-01 14:42:00,
2013-03-01 08:44:00,35.6,30.0,29.91,NW,304,0.0,1.0,80,0.00,,,0.00,Wunderground v.1.15,2013-03-01 14:44:00,
2013-03-01 08:45:00,35.6,30.0,29.91,NW,304,0.0,2.0,80,0.00,,,0.00,Wunderground v.1.15,2013-03-01 14:45:00,
2013-03-01 08:46:00,35.6,29.7,29.91,NW,304,0.0,2.0,79,0.00,,,0.00,Wunderground v.1.15,2013-03-01 14:46:00,
2013-03-01 08:47:00,35.6,29.7,29.91,NNE,23,2.0,2.0,79,0.00,,,0.00,Wunderground v.1.15,2013-03-01 14:47:00,
2013-03-01 08:49:00,35.7,29.8,29.91,West,280,0.0,2.0,79,0.00,,,0.00,Wunderground v.1.15,2013-03-01 14:49:00,
2013-03-01 08:50:00,35.7,29.8,29.91,NW,325,0.0,2.0,79,0.00,,,0.00,Wunderground v.1.15,2013-03-01 14:50:00,
2013-03-01 08:51:00,35.7,29.8,29.91,NNW,337,3.0,3.0,79,0.00,,,0.00,Wunderground v.1.15,2013-03-01 14:51:00,
2013-03-01 08:52:00,35.7,29.8,29.91,NNW,338,3.0,4.0,79,0.00,,,0.00,Wunderground v.1.15,2013-03-01 14:52:00,
2013-03-01 08:54:00,35.7,29.8,29.91,NNE,22,0.0,4.0,79,0.00,,,0.00,Wunderground v.1.15,2013-03-01 14:54:00,
2013-03-01 08:56:00,35.7,30.1,29.91,NW,319,0.0,4.0,80,0.00,,,0.00,Wunderground v.1.15,2013-03-01 14:56:00,
2013-03-01 08:57:00,35.6,30.0,29.91,NW,319,0.0,4.0,80,0.00,,,0.00,Wunderground v.1.15,2013-03-01 14:57:00,
2013-03-01 08:58:00,35.7,29.8,29.91,NW,306,0.0,4.0,79,0.00,,,0.00,Wunderground v.1.15,2013-03-01 14:58:00,
2013-03-01 08:59:00,35.7,29.8,29.91,NW,306,0.0,4.0,79,0.00,,,0.00,Wunderground v.1.15,2013-03-01 14:59:00,
2013-03-01 09:02:00,35.7,29.8,29.91,NW,306,0.0,0.0,79,0.00,,,0.00,Wunderground v.1.15,2013-03-01 15:02:00,
2013-03-01 09:04:00,35.7,30.1,29.91,NW,306,0.0,0.0,80,0.00,,,0.00,Wunderground v.1.15,2013-03-01 15:04:00,
2013-03-01 09:07:00,35.7,29.8,29.91,NW,306,0.0,0.0,79,0.00,,,0.00,Wunderground v.1.15,2013-03-01 15:07:00,
2013-03-01 09:09:00,35.7,29.8,29.91,WNW,296,0.0,0.0,79,0.00,,,0.00,Wunderground v.1.15,2013-03-01 15:09:00,
2013-03-01 09:12:00,35.7,29.8,29.91,NNW,338,0.0,0.0,79,0.00,,,0.00,Wunderground v.1.15,2013-03-01 15:12:00,
2013-03-01 09:14:00,35.7,29.8,29.91,NNW,339,1.0,4.0,79,0.00,,,0.00,Wunderground v.1.15,2013-03-01 15:14:00,
2013-03-01 09:17:00,35.7,30.1,29.91,NNW,327,2.0,4.0,80,0.00,,,0.00,Wunderground v.1.15,2013-03-01 15:17:00,
2013-03-01 09:18:00,35.7,29.8,29.91,North,5,1.0,4.0,79,0.00,,,0.00,Wunderground v.1.15,2013-03-01 15:18:00,
2013-03-01 09:20:00,35.7,29.8,29.91,NNW,331,0.0,4.0,79,0.00,,,0.00,Wunderground v.1.15,2013-03-01 15:20:00,
2013-03-01 09:23:00,35.7,29.8,29.91,NNW,334,0.0,1.0,79,0.00,,,0.00,Wunderground v.1.15,2013-03-01 15:23:00,
2013-03-01 09:25:00,35.7,29.8,29.92,NNW,339,0.0,1.0,79,0.00,,,0.00,Wunderground v.1.15,2013-03-01 15:25:00,
2013-03-01 09:28:00,35.7,29.8,29.91,NNW,339,0.0,1.0,79,0.00,,,0.00,Wunderground v.1.15,2013-03-01 15:28:00,
2013-03-01 09:30:00,35.7,29.8,29.91,NNW,339,0.0,3.0,79,0.00,,,0.00,Wunderground v.1.15,2013-03-01 15:30:00,
2013-03-01 09:33:00,35.7,29.5,29.91,NNW,347,1.0,3.0,78,0.00,,,0.00,Wunderground v.1.15,2013-03-01 15:33:00,
2013-03-01 09:35:00,35.7,29.5,29.92,NW,325,0.0,8.0,78,0.00,,,0.00,Wunderground v.1.15,2013-03-01 15:35:00,
2013-03-01 09:38:00,35.8,29.6,29.92,NW,325,0.0,8.0,78,0.00,,,0.00,Wunderground v.1.15,2013-03-01 15:38:00,
2013-03-01 09:40:00,35.8,29.6,29.92,NNW,340,0.0,8.0,78,0.00,,,0.00,Wunderground v.1.15,2013-03-01 15:40:00,
2013-03-01 09:41:00,35.8,29.6,29.92,NW,326,1.0,8.0,78,0.00,,,0.00,Wunderground v.1.15,2013-03-01 15:41:00,
2013-03-01 09:43:00,35.9,29.7,29.92,NNW,338,2.0,6.0,78,0.00,,,0.00,Wunderground v.1.15,2013-03-01 15:43:00,
2013-03-01 09:44:00,35.9,29.7,29.92,NW,317,4.0,6.0,78,0.00,,,0.00,Wunderground v.1.15,2013-03-01 15:44:00,
2013-03-01 09:45:00,35.9,29.7,29.92,NW,311,0.0,6.0,78,0.00,,,0.00,Wunderground v.1.15,2013-03-01 15:45:00,
2013-03-01 09:46:00,35.9,29.7,29.92,NW,309,0.0,6.0,78,0.00,,,0.00,Wunderground v.1.15,2013-03-01 15:46:00,
2013-03-01 09:49:00,35.9,29.7,29.92,NW,306,2.0,6.0,78,0.00,,,0.00,Wunderground v.1.15,2013-03-01 15:49:00,
2013-03-01 09:51:00,35.9,29.4,29.92,WNW,300,0.0,6.0,77,0.00,,,0.00,Wunderground v.1.15,2013-03-01 15:51:00,
2013-03-01 09:52:00,36.0,29.8,29.92,NW,313,4.0,6.0,78,0.00,,,0.00,Wunderground v.1.15,2013-03-01 15:52:00,
2013-03-01 09:54:00,36.0,29.8,29.92,WNW,302,0.0,4.0,78,0.00,,,0.00,Wunderground v.1.15,2013-03-01 15:54:00,
2013-03-01 09:57:00,36.1,29.9,29.92,WNW,292,2.0,4.0,78,0.00,,,0.00,Wunderground v.1.15,2013-03-01 15:57:00,
2013-03-01 09:59:00,36.2,30.0,29.92,NNE,12,4.0,6.0,78,0.00,,,0.00,Wunderground v.1.15,2013-03-01 15:59:00,
2013-03-01 10:00:00,36.2,29.7,29.92,NW,322,0.0,6.0,77,0.00,,,0.00,Wunderground v.1.15,2013-03-01 16:00:00,
2013-03-01 10:02:00,36.2,29.7,29.92,NW,323,0.0,2.0,77,0.00,,,0.00,Wunderground v.1.15,2013-03-01 16:02:00,
2013-03-01 10:03:00,36.2,29.7,29.92,NW,313,3.0,3.0,77,0.00,,,0.00,Wunderground v.1.15,2013-03-01 16:03:00,
2013-03-01 10:04:00,36.2,29.7,29.92,WNW,300,0.0,3.0,77,0.00,,,0.00,Wunderground v.1.15,2013-03-01 16:04:00,
2013-03-01 10:05:00,36.2,29.7,29.92,NW,321,3.0,3.0,77,0.00,,,0.00,Wunderground v.1.15,2013-03-01 16:05:00,
2013-03-01 10:08:00,36.2,29.7,29.92,NNW,330,3.0,6.0,77,0.00,,,0.00,Wunderground v.1.15,2013-03-01 16:08:00,
2013-03-01 10:10:00,36.1,29.6,29.92,NW,309,3.0,6.0,77,0.00,,,0.00,Wunderground v.1.15,2013-03-01 16:10:00,
2013-03-01 10:11:00,36.1,29.6,29.92,WNW,301,0.0,6.0,77,0.00,,,0.00,Wunderground v.1.15,2013-03-01 16:11:00,
2013-03-01 10:13:00,36.1,29.6,29.92,NW,311,0.0,2.0,77,0.00,,,0.00,Wunderground v.1.15,2013-03-01 16:13:00,
2013-03-01 10:14:00,36.1,29.6,29.92,WNW,300,1.0,2.0,77,0.00,,,0.00,Wunderground v.1.15,2013-03-01 16:14:00,
2013-03-01 10:15:00,36.1,29.9,29.92,NNW,337,2.0,2.0,78,0.00,,,0.00,Wunderground v.1.15,2013-03-01 16:15:00,
2013-03-01 10:17:00,36.2,30.0,29.92,NW,311,0.0,3.0,78,0.00,,,0.00,Wunderground v.1.15,2013-03-01 16:17:00,
2013-03-01 10:18:00,36.2,30.0,29.92,NW,310,0.0,3.0,78,0.00,,,0.00,Wunderground v.1.15,2013-03-01 16:18:00,
2013-03-01 10:19:00,36.2,30.0,29.92,NW,311,0.0,3.0,78,0.00,,,0.00,Wunderground v.1.15,2013-03-01 16:19:00,
2013-03-01 10:20:00,36.2,30.0,29.92,NW,311,2.0,3.0,78,0.00,,,0.00,Wunderground v.1.15,2013-03-01 16:20:00,
2013-03-01 10:22:00,36.3,29.8,29.92,NW,320,5.0,5.0,77,0.00,,,0.00,Wunderground v.1.15,2013-03-01 16:22:00,
2013-03-01 10:23:00,36.4,29.6,29.92,NNW,342,1.0,6.0,76,0.00,,,0.00,Wunderground v.1.15,2013-03-01 16:23:00,
2013-03-01 10:24:00,36.4,29.9,29.92,NNW,342,0.0,6.0,77,0.00,,,0.00,Wunderground v.1.15,2013-03-01 16:24:00,
2013-03-01 10:25:00,36.4,29.9,29.92,NNW,338,2.0,6.0,77,0.00,,,0.00,Wunderground v.1.15,2013-03-01 16:25:00,
2013-03-01 10:27:00,36.5,30.0,29.92,NW,323,1.0,6.0,77,0.00,,,0.00,Wunderground v.1.15,2013-03-01 16:27:00,
2013-03-01 10:29:00,36.5,29.7,29.92,NNW,328,0.0,6.0,76,0.00,,,0.00,Wunderground v.1.15,2013-03-01 16:29:00,
2013-03-01 10:30:00,36.5,29.7,29.92,NNW,327,0.0,6.0,76,0.00,,,0.00,Wunderground v.1.15,2013-03-01 16:30:00,
2013-03-01 10:33:00,36.6,30.1,29.93,NW,311,2.0,3.0,77,0.00,,,0.00,Wunderground v.1.15,2013-03-01 16:33:00,
2013-03-01 10:34:00,36.6,29.7,29.93,NW,313,0.0,3.0,76,0.00,,,0.00,Wunderground v.1.15,2013-03-01 16:34:00,
2013-03-01 10:35:00,36.6,30.1,29.93,NW,312,0.0,3.0,77,0.00,,,0.00,Wunderground v.1.15,2013-03-01 16:35:00,
2013-03-01 10:38:00,36.6,29.7,29.93,NNW,331,0.0,5.0,76,0.00,,,0.00,Wunderground v.1.15,2013-03-01 16:38:00,
2013-03-01 10:39:00,36.6,29.4,29.93,NW,313,4.0,5.0,75,0.00,,,0.00,Wunderground v.1.15,2013-03-01 16:39:00,
2013-03-01 10:40:00,36.6,29.4,29.93,NW,322,2.0,5.0,75,0.00,,,0.00,Wunderground v.1.15,2013-03-01 16:40:00,
2013-03-01 10:41:00,36.6,29.4,29.93,NNW,340,1.0,5.0,75,0.00,,,0.00,Wunderground v.1.15,2013-03-01 16:41:00,
2013-03-01 10:43:00,36.6,29.7,29.93,NW,317,4.0,5.0,76,0.00,,,0.00,Wunderground v.1.15,2013-03-01 16:43:00,
2013-03-01 10:44:00,36.6,29.4,29.93,NNE,14,3.0,5.0,75,0.00,,,0.00,Wunderground v.1.15,2013-03-01 16:44:00,
2013-03-01 10:45:00,36.6,29.4,29.92,NW,322,1.0,5.0,75,0.00,,,0.00,Wunderground v.1.15,2013-03-01 16:45:00,
2013-03-01 10:46:00,36.5,29.3,29.92,NW,322,0.0,5.0,75,0.00,,,0.00,Wunderground v.1.15,2013-03-01 16:46:00,
2013-03-01 10:48:00,36.6,29.7,29.92,WNW,298,0.0,5.0,76,0.00,,,0.00,Wunderground v.1.15,2013-03-01 16:48:00,
2013-03-01 10:49:00,36.6,29.7,29.92,WNW,298,0.0,5.0,76,0.00,,,0.00,Wunderground v.1.15,2013-03-01 16:49:00,
2013-03-01 10:51:00,36.7,29.5,29.92,NW,319,4.0,5.0,75,0.00,,,0.00,Wunderground v.1.15,2013-03-01 16:51:00,
2013-03-01 10:53:00,36.7,29.5,29.92,NW,309,0.0,4.0,75,0.00,,,0.00,Wunderground v.1.15,2013-03-01 16:53:00,
2013-03-01 10:54:00,36.7,29.2,29.92,NW,309,0.0,4.0,74,0.00,,,0.00,Wunderground v.1.15,2013-03-01 16:54:00,
2013-03-01 10:56:00,36.8,29.3,29.92,NNW,336,0.0,4.0,74,0.00,,,0.00,Wunderground v.1.15,2013-03-01 16:56:00,
2013-03-01 10:58:00,36.8,29.3,29.92,NW,312,0.0,6.0,74,0.00,,,0.00,Wunderground v.1.15,2013-03-01 16:58:00,
2013-03-01 11:00:00,36.8,29.3,29.92,NW,309,0.0,6.0,74,0.00,,,0.00,Wunderground v.1.15,2013-03-01 17:00:00,
2013-03-01 11:01:00,36.9,29.4,29.92,NW,310,0.0,6.0,74,0.00,,,0.00,Wunderground v.1.15,2013-03-01 17:01:00,
2013-03-01 11:04:00,36.9,29.4,29.92,NW,314,0.0,2.0,74,0.00,,,0.00,Wunderground v.1.15,2013-03-01 17:04:00,
2013-03-01 11:06:00,36.9,29.7,29.92,NNW,333,0.0,2.0,75,0.00,,,0.00,Wunderground v.1.15,2013-03-01 17:06:00,
2013-03-01 11:07:00,36.9,29.7,29.92,NNW,329,0.0,2.0,75,0.00,,,0.00,Wunderground v.1.15,2013-03-01 17:07:00,
2013-03-01 11:09:00,37.0,29.5,29.92,NW,324,0.0,2.0,74,0.00,,,0.00,Wunderground v.1.15,2013-03-01 17:09:00,
2013-03-01 11:11:00,37.0,29.8,29.92,NNW,334,0.0,3.0,75,0.00,,,0.00,Wunderground v.1.15,2013-03-01 17:11:00,
2013-03-01 11:12:00,37.0,29.8,29.92,NW,317,2.0,3.0,75,0.00,,,0.00,Wunderground v.1.15,2013-03-01 17:12:00,
2013-03-01 11:13:00,37.0,29.5,29.92,NW,318,0.0,2.0,74,0.00,,,0.00,Wunderground v.1.15,2013-03-01 17:13:00,
2013-03-01 11:14:00,37.0,29.5,29.92,NNW,348,0.0,2.0,74,0.00,,,0.00,Wunderground v.1.15,2013-03-01 17:14:00,
2013-03-01 11:16:00,37.0,29.5,29.92,NNW,342,0.0,3.0,74,0.00,,,0.00,Wunderground v.1.15,2013-03-01 17:16:00,
2013-03-01 11:18:00,36.9,29.4,29.92,NW,317,0.0,3.0,74,0.00,,,0.00,Wunderground v.1.15,2013-03-01 17:18:00,
2013-03-01 11:19:00,36.8,29.6,29.92,WNW,290,2.0,4.0,75,0.00,,,0.00,Wunderground v.1.15,2013-03-01 17:19:00,
2013-03-01 11:21:00,36.8,29.3,29.92,NW,306,0.0,4.0,74,0.00,,,0.00,Wunderground v.1.15,2013-03-01 17:21:00,
2013-03-01 11:23:00,36.7,29.2,29.92,NW,306,0.0,0.0,74,0.00,,,0.00,Wunderground v.1.15,2013-03-01 17:23:00,
2013-03-01 11:24:00,36.7,29.5,29.92,NW,306,0.0,0.0,75,0.00,,,0.00,Wunderground v.1.15,2013-03-01 17:24:00,
2013-03-01 11:25:00,36.7,29.5,29.92,NW,323,2.0,4.0,75,0.00,,,0.00,Wunderground v.1.15,2013-03-01 17:25:00,
2013-03-01 11:26:00,36.7,29.8,29.92,NW,322,0.0,4.0,76,0.00,,,0.00,Wunderground v.1.15,2013-03-01 17:26:00,
2013-03-01 11:28:00,36.7,29.5,29.92,NW,323,0.0,4.0,75,0.00,,,0.00,Wunderground v.1.15,2013-03-01 17:28:00,
2013-03-01 11:30:00,36.7,29.5,29.92,NW,322,0.0,5.0,75,0.00,,,0.00,Wunderground v.1.15,2013-03-01 17:30:00,
2013-03-01 11:32:00,36.8,29.9,29.92,NW,317,0.0,5.0,76,0.00,,,0.00,Wunderground v.1.15,2013-03-01 17:32:00,
2013-03-01 11:33:00,36.8,29.6,29.92,NW,317,0.0,0.0,75,0.00,,,0.00,Wunderground v.1.15,2013-03-01 17:33:00,
2013-03-01 11:35:00,36.8,29.9,29.91,NW,323,0.0,5.0,76,0.00,,,0.00,Wunderground v.1.15,2013-03-01 17:35:00,
2013-03-01 11:36:00,36.8,29.6,29.91,NW,323,0.0,5.0,75,0.00,,,0.00,Wunderground v.1.15,2013-03-01 17:36:00,
2013-03-01 11:37:00,36.9,30.0,29.91,NW,322,0.0,5.0,76,0.00,,,0.00,Wunderground v.1.15,2013-03-01 17:37:00,
2013-03-01 11:38:00,36.9,30.0,29.91,NW,322,0.0,5.0,76,0.00,,,0.00,Wunderground v.1.15,2013-03-01 17:38:00,
2013-03-01 11:40:00,37.0,29.8,29.91,NW,321,0.0,5.0,75,0.00,,,0.00,Wunderground v.1.15,2013-03-01 17:40:00,
2013-03-01 11:41:00,37.0,29.8,29.91,NW,321,0.0,5.0,75,0.00,,,0.00,Wunderground v.1.15,2013-03-01 17:41:00,
2013-03-01 11:42:00,37.1,30.2,29.91,NW,321,0.0,0.0,76,0.00,,,0.00,Wunderground v.1.15,2013-03-01 17:42:00,
2013-03-01 11:43:00,37.1,30.2,29.91,NW,326,5.0,5.0,76,0.00,,,0.00,Wunderground v.1.15,2013-03-01 17:43:00,
2013-03-01 11:45:00,37.1,29.2,29.91,NNW,336,0.0,5.0,73,0.00,,,0.00,Wunderground v.1.15,2013-03-01 17:45:00,
2013-03-01 11:46:00,37.1,29.6,29.91,NNW,330,1.0,5.0,74,0.00,,,0.00,Wunderground v.1.15,2013-03-01 17:46:00,
2013-03-01 11:48:00,37.1,29.6,29.91,NNW,331,0.0,5.0,74,0.00,,,0.00,Wunderground v.1.15,2013-03-01 17:48:00,
2013-03-01 11:51:00,37.0,29.5,29.91,NNW,331,0.0,5.0,74,0.00,,,0.00,Wunderground v.1.15,2013-03-01 17:51:00,
2013-03-01 11:53:00,37.0,29.5,29.91,North,355,1.0,4.0,74,0.00,,,0.00,Wunderground v.1.15,2013-03-01 17:53:00,
2013-03-01 11:54:00,37.0,29.5,29.91,WNW,286,0.0,4.0,74,0.00,,,0.00,Wunderground v.1.15,2013-03-01 17:54:00,
2013-03-01 11:56:00,36.8,29.6,29.91,WNW,296,4.0,4.0,75,0.00,,,0.00,Wunderground v.1.15,2013-03-01 17:56:00,
2013-03-01 11:57:00,36.8,29.6,29.91,NNW,336,0.0,4.0,75,0.00,,,0.00,Wunderground v.1.15,2013-03-01 17:57:00,
2013-03-01 11:58:00,36.8,29.9,29.91,North,5,0.0,4.0,76,0.00,,,0.00,Wunderground v.1.15,2013-03-01 17:58:00,
2013-03-01 11:59:00,36.7,29.8,29.91,North,360,2.0,4.0,76,0.00,,,0.00,Wunderground v.1.15,2013-03-01 17:59:00,
2013-03-01 12:01:00,36.6,30.1,29.91,NW,309,0.0,5.0,77,0.00,,,0.00,Wunderground v.1.15,2013-03-01 18:01:00,
2013-03-01 12:02:00,36.6,30.1,29.91,NW,321,2.0,5.0,77,0.00,,,0.00,Wunderground v.1.15,2013-03-01 18:02:00,
2013-03-01 12:03:00,36.5,30.0,29.91,NNW,333,3.0,4.0,77,0.00,,,0.00,Wunderground v.1.15,2013-03-01 18:03:00,
2013-03-01 12:04:00,36.5,30.0,29.91,NW,321,0.0,4.0,77,0.00,,,0.00,Wunderground v.1.15,2013-03-01 18:04:00,
2013-03-01 12:06:00,36.4,30.2,29.91,NW,320,0.0,4.0,78,0.00,,,0.00,Wunderground v.1.15,2013-03-01 18:06:00,
2013-03-01 12:08:00,36.4,30.2,29.91,NW,309,4.0,4.0,78,0.00,,,0.00,Wunderground v.1.15,2013-03-01 18:08:00,
2013-03-01 12:10:00,36.3,30.1,29.91,NW,306,0.0,4.0,78,0.00,,,0.00,Wunderground v.1.15,2013-03-01 18:10:00,
2013-03-01 12:11:00,36.3,30.1,29.91,NW,322,2.0,4.0,78,0.00,,,0.00,Wunderground v.1.15,2013-03-01 18:11:00,
2013-03-01 12:13:00,36.2,30.0,29.91,NW,319,2.0,2.0,78,0.00,,,0.00,Wunderground v.1.15,2013-03-01 18:13:00,
2013-03-01 12:14:00,36.2,30.0,29.91,NW,314,0.0,2.0,78,0.00,,,0.00,Wunderground v.1.15,2013-03-01 18:14:00,
2013-03-01 12:15:00,36.2,30.0,29.91,NW,314,0.0,2.0,78,0.00,,,0.00,Wunderground v.1.15,2013-03-01 18:15:00,
2013-03-01 12:17:00,36.2,30.3,29.91,NW,314,2.0,3.0,79,0.00,,,0.00,Wunderground v.1.15,2013-03-01 18:17:00,
2013-03-01 12:19:00,36.2,30.3,29.91,NW,313,0.0,3.0,79,0.00,,,0.00,Wunderground v.1.15,2013-03-01 18:19:00,
2013-03-01 12:20:00,36.2,30.3,29.91,NE,36,0.0,3.0,79,0.00,,,0.00,Wunderground v.1.15,2013-03-01 18:20:00,
2013-03-01 12:22:00,36.2,30.6,29.91,NE,36,0.0,0.0,80,0.00,,,0.00,Wunderground v.1.15,2013-03-01 18:22:00,
2013-03-01 12:24:00,36.3,30.7,29.91,NE,36,0.0,0.0,80,0.00,,,0.00,Wunderground v.1.15,2013-03-01 18:24:00,
2013-03-01 12:25:00,36.3,30.7,29.91,NNW,341,0.0,0.0,80,0.00,,,0.00,Wunderground v.1.15,2013-03-01 18:25:00,
2013-03-01 12:27:00,36.3,30.4,29.91,NNW,337,0.0,4.0,79,0.00,,,0.00,Wunderground v.1.15,2013-03-01 18:27:00,
2013-03-01 12:29:00,36.3,30.4,29.91,NW,314,0.0,4.0,79,0.00,,,0.00,Wunderground v.1.15,2013-03-01 18:29:00,
2013-03-01 12:30:00,36.3,30.4,29.91,NW,314,0.0,4.0,79,0.00,,,0.00,Wunderground v.1.15,2013-03-01 18:30:00,
2013-03-01 12:33:00,36.4,30.5,29.90,NW,314,0.0,0.0,79,0.00,,,0.00,Wunderground v.1.15,2013-03-01 18:33:00,
2013-03-01 12:35:00,36.4,30.5,29.90,NW,319,3.0,4.0,79,0.00,,,0.00,Wunderground v.1.15,2013-03-01 18:35:00,
2013-03-01 12:38:00,36.4,30.5,29.90,NW,309,0.0,5.0,79,0.00,,,0.00,Wunderground v.1.15,2013-03-01 18:38:00,
2013-03-01 12:40:00,36.4,30.5,29.90,NW,322,0.0,5.0,79,0.00,,,0.00,Wunderground v.1.15,2013-03-01 18:40:00,
2013-03-01 12:41:00,36.5,30.6,29.90,NW,322,0.0,5.0,79,0.00,,,0.00,Wunderground v.1.15,2013-03-01 18:41:00,
2013-03-01 12:43:00,36.5,30.6,29.90,NW,319,0.0,1.0,79,0.00,,,0.00,Wunderground v.1.15,2013-03-01 18:43:00,
2013-03-01 12:45:00,36.5,30.6,29.90,NW,317,0.0,3.0,79,0.00,,,0.00,Wunderground v.1.15,2013-03-01 18:45:00,
2013-03-01 12:47:00,36.6,30.7,29.90,NW,317,0.0,3.0,79,0.00,,,0.00,Wunderground v.1.15,2013-03-01 18:47:00,
2013-03-01 12:50:00,36.6,30.7,29.90,NW,317,0.0,3.0,79,0.00,,,0.00,Wunderground v.1.15,2013-03-01 18:50:00,
2013-03-01 12:51:00,36.6,30.7,29.90,NW,317,0.0,3.0,79,0.00,,,0.00,Wunderground v.1.15,2013-03-01 18:51:00,
2013-03-01 12:52:00,36.6,30.7,29.90,NW,317,0.0,0.0,79,0.00,,,0.00,Wunderground v.1.15,2013-03-01 18:52:00,
2013-03-01 12:55:00,36.7,30.8,29.90,NW,317,0.0,1.0,79,0.00,,,0.00,Wunderground v.1.15,2013-03-01 18:55:00,
2013-03-01 12:56:00,36.7,30.8,29.90,NW,317,0.0,1.0,79,0.00,,,0.00,Wunderground v.1.15,2013-03-01 18:56:00,
2013-03-01 12:57:00,36.7,31.1,29.90,NW,317,0.0,1.0,80,0.00,,,0.00,Wunderground v.1.15,2013-03-01 18:57:00,
2013-03-01 13:01:00,36.8,30.9,29.89,NW,317,0.0,1.0,79,0.00,,,0.00,Wunderground v.1.15,2013-03-01 19:01:00,
2013-03-01 13:02:00,36.8,31.2,29.89,NW,317,0.0,0.0,80,0.00,,,0.00,Wunderground v.1.15,2013-03-01 19:02:00,
2013-03-01 13:06:00,36.9,31.3,29.89,NW,317,0.0,0.0,80,0.00,,,0.00,Wunderground v.1.15,2013-03-01 19:06:00,
2013-03-01 13:07:00,36.9,31.3,29.89,NW,317,0.0,0.0,80,0.00,,,0.00,Wunderground v.1.15,2013-03-01 19:07:00,
2013-03-01 13:11:00,36.9,31.3,29.89,NW,317,0.0,2.0,80,0.00,,,0.00,Wunderground v.1.15,2013-03-01 19:11:00,
2013-03-01 13:12:00,36.9,31.3,29.89,NW,317,0.0,0.0,80,0.00,,,0.00,Wunderground v.1.15,2013-03-01 19:12:00,
2013-03-01 13:16:00,36.9,31.3,29.89,NW,317,0.0,0.0,80,0.00,,,0.00,Wunderground v.1.15,2013-03-01 19:16:00,
2013-03-01 13:17:00,36.9,31.3,29.89,NW,317,0.0,0.0,80,0.00,,,0.00,Wunderground v.1.15,2013-03-01 19:17:00,
2013-03-01 13:21:00,37.0,31.1,29.89,North,349,0.0,3.0,79,0.00,,,0.00,Wunderground v.1.15,2013-03-01 19:21:00,
2013-03-01 13:22:00,37.0,31.1,29.89,North,349,0.0,1.0,79,0.00,,,0.00,Wunderground v.1.15,2013-03-01 19:22:00,
2013-03-01 13:23:00,37.0,31.1,29.89,North,349,0.0,1.0,79,0.00,,,0.00,Wunderground v.1.15,2013-03-01 19:23:00,
2013-03-01 13:27:00,37.0,31.1,29.88,NNW,330,0.0,1.0,79,0.00,,,0.00,Wunderground v.1.15,2013-03-01 19:27:00,
2013-03-01 13:28:00,37.0,30.8,29.88,NNE,18,0.0,4.0,78,0.00,,,0.00,Wunderground v.1.15,2013-03-01 19:28:00,
2013-03-01 13:32:00,37.0,30.8,29.88,NW,325,0.0,0.0,78,0.00,,,0.00,Wunderground v.1.15,2013-03-01 19:32:00,
2013-03-01 13:33:00,37.0,30.8,29.88,NW,325,0.0,0.0,78,0.00,,,0.00,Wunderground v.1.15,2013-03-01 19:33:00,
2013-03-01 13:37:00,37.0,30.8,29.88,NNW,346,5.0,6.0,78,0.00,,,0.00,Wunderground v.1.15,2013-03-01 19:37:00,
2013-03-01 13:38:00,36.9,30.4,29.88,North,360,2.0,6.0,77,0.00,,,0.00,Wunderground v.1.15,2013-03-01 19:38:00,
2013-03-01 13:39:00,36.9,30.4,29.88,NNW,329,1.0,6.0,77,0.00,,,0.00,Wunderground v.1.15,2013-03-01 19:39:00,
2013-03-01 13:42:00,36.9,30.4,29.88,NW,318,0.0,3.0,77,0.00,,,0.00,Wunderground v.1.15,2013-03-01 19:42:00,
2013-03-01 13:44:00,37.0,30.1,29.88,NW,318,0.0,3.0,76,0.00,,,0.00,Wunderground v.1.15,2013-03-01 19:44:00,
2013-03-01 13:47:00,37.1,30.2,29.88,NW,318,0.0,3.0,76,0.00,,,0.00,Wunderground v.1.15,2013-03-01 19:47:00,
2013-03-01 13:49:00,37.1,30.2,29.88,NW,311,0.0,3.0,76,0.00,,,0.00,Wunderground v.1.15,2013-03-01 19:49:00,
2013-03-01 13:50:00,37.1,30.2,29.88,NW,311,0.0,3.0,76,0.00,,,0.00,Wunderground v.1.15,2013-03-01 19:50:00,
2013-03-01 13:53:00,37.3,29.8,29.89,NNW,330,1.0,4.0,74,0.00,,,0.00,Wunderground v.1.15,2013-03-01 19:53:00,
2013-03-01 13:54:00,37.3,30.1,29.88,NNW,330,0.0,4.0,75,0.00,,,0.00,Wunderground v.1.15,2013-03-01 19:54:00,
2013-03-01 13:56:00,37.4,30.2,29.89,NW,318,3.0,4.0,75,0.00,,,0.00,Wunderground v.1.15,2013-03-01 19:56:00,
2013-03-01 13:58:00,37.4,30.2,29.89,NW,314,0.0,4.0,75,0.00,,,0.00,Wunderground v.1.15,2013-03-01 19:58:00,
2013-03-01 13:59:00,37.4,30.2,29.89,NW,314,0.0,4.0,75,0.00,,,0.00,Wunderground v.1.15,2013-03-01 19:59:00,
2013-03-01 14:02:00,37.4,30.5,29.89,NW,314,0.0,4.0,76,0.00,,,0.00,Wunderground v.1.15,2013-03-01 20:02:00,
2013-03-01 14:03:00,37.3,30.4,29.89,NW,314,0.0,3.0,76,0.00,,,0.00,Wunderground v.1.15,2013-03-01 20:03:00,
2013-03-01 14:04:00,37.3,30.4,29.89,NW,307,0.0,3.0,76,0.00,,,0.00,Wunderground v.1.15,2013-03-01 20:04:00,
2013-03-01 14:07:00,37.2,30.7,29.88,NW,307,0.0,3.0,77,0.00,,,0.00,Wunderground v.1.15,2013-03-01 20:07:00,
2013-03-01 14:08:00,37.2,30.7,29.88,NW,307,0.0,3.0,77,0.00,,,0.00,Wunderground v.1.15,2013-03-01 20:08:00,
2013-03-01 14:09:00,37.2,31.0,29.88,NW,307,1.0,3.0,78,0.00,,,0.00,Wunderground v.1.15,2013-03-01 20:09:00,
2013-03-01 14:10:00,37.2,31.0,29.88,NW,307,0.0,3.0,78,0.00,,,0.00,Wunderground v.1.15,2013-03-01 20:10:00,
2013-03-01 14:12:00,37.1,30.2,29.89,NW,323,0.0,0.0,76,0.00,,,0.00,Wunderground v.1.15,2013-03-01 20:12:00,
2013-03-01 14:13:00,37.1,30.2,29.88,NW,324,0.0,0.0,76,0.00,,,0.00,Wunderground v.1.15,2013-03-01 20:13:00,
2013-03-01 14:15:00,37.1,30.6,29.89,NW,317,0.0,1.0,77,0.00,,,0.00,Wunderground v.1.15,2013-03-01 20:15:00,
2013-03-01 14:16:00,37.1,30.2,29.88,WNW,294,0.0,2.0,76,0.00,,,0.00,Wunderground v.1.15,2013-03-01 20:16:00,
2013-03-01 14:18:00,37.1,29.9,29.89,WNW,286,2.0,2.0,75,0.00,,,0.00,Wunderground v.1.15,2013-03-01 20:18:00,
2013-03-01 14:20:00,37.1,30.2,29.88,NNW,337,0.0,3.0,76,0.00,,,0.00,Wunderground v.1.15,2013-03-01 20:20:00,
2013-03-01 14:21:00,37.1,29.9,29.88,NW,321,0.0,3.0,75,0.00,,,0.00,Wunderground v.1.15,2013-03-01 20:21:00,
2013-03-01 14:23:00,37.1,29.6,29.88,West,279,0.0,2.0,74,0.00,,,0.00,Wunderground v.1.15,2013-03-01 20:23:00,
2013-03-01 14:24:00,37.1,29.9,29.88,NNW,329,0.0,2.0,75,0.00,,,0.00,Wunderground v.1.15,2013-03-01 20:24:00,
2013-03-01 14:25:00,37.2,30.0,29.88,NW,323,0.0,2.0,75,0.00,,,0.00,Wunderground v.1.15,2013-03-01 20:25:00,
2013-03-01 14:26:00,37.2,29.7,29.88,NW,323,0.0,2.0,74,0.00,,,0.00,Wunderground v.1.15,2013-03-01 20:26:00,
2013-03-01 14:28:00,37.3,30.1,29.88,NW,323,0.0,3.0,75,0.00,,,0.00,Wunderground v.1.15,2013-03-01 20:28:00,
2013-03-01 14:29:00,37.3,30.1,29.88,NW,323,0.0,3.0,75,0.00,,,0.00,Wunderground v.1.15,2013-03-01 20:29:00,
2013-03-01 14:30:00,37.3,29.8,29.88,NW,323,0.0,3.0,74,0.00,,,0.00,Wunderground v.1.15,2013-03-01 20:30:00,
2013-03-01 14:32:00,37.3,29.8,29.88,NNE,14,2.0,3.0,74,0.00,,,0.00,Wunderground v.1.15,2013-03-01 20:32:00,
2013-03-01 14:33:00,37.4,29.5,29.88,NNE,14,1.0,3.0,73,0.00,,,0.00,Wunderground v.1.15,2013-03-01 20:33:00,
2013-03-01 14:35:00,37.4,29.5,29.88,NNW,333,0.0,3.0,73,0.00,,,0.00,Wunderground v.1.15,2013-03-01 20:35:00,
2013-03-01 14:37:00,37.5,29.6,29.88,NW,326,0.0,4.0,73,0.00,,,0.00,Wunderground v.1.15,2013-03-01 20:37:00,
2013-03-01 14:38:00,37.5,29.6,29.88,NW,317,0.0,4.0,73,0.00,,,0.00,Wunderground v.1.15,2013-03-01 20:38:00,
2013-03-01 14:40:00,37.6,29.7,29.88,NW,316,0.0,4.0,73,0.00,,,0.00,Wunderground v.1.15,2013-03-01 20:40:00,
2013-03-01 14:42:00,37.6,30.1,29.88,North,9,3.0,4.0,74,0.00,,,0.00,Wunderground v.1.15,2013-03-01 20:42:00,
2013-03-01 14:43:00,37.5,30.0,29.88,NNE,29,4.0,10.0,74,0.00,,,0.00,Wunderground v.1.15,2013-03-01 20:43:00,
2013-03-01 14:45:00,37.5,30.3,29.88,NW,317,0.0,10.0,75,0.00,,,0.00,Wunderground v.1.15,2013-03-01 20:45:00,
2013-03-01 14:47:00,37.4,30.2,29.88,North,360,0.0,10.0,75,0.00,,,0.00,Wunderground v.1.15,2013-03-01 20:47:00,
2013-03-01 14:49:00,37.3,30.1,29.88,NNW,333,0.0,10.0,75,0.00,,,0.00,Wunderground v.1.15,2013-03-01 20:49:00,
2013-03-01 14:50:00,37.2,30.3,29.88,NW,304,3.0,10.0,76,0.00,,,0.00,Wunderground v.1.15,2013-03-01 20:50:00,
2013-03-01 14:51:00,37.1,30.2,29.88,WNW,303,1.0,10.0,76,0.00,,,0.00,Wunderground v.1.15,2013-03-01 20:51:00,
2013-03-01 14:53:00,37.1,30.2,29.88,NW,306,0.0,3.0,76,0.00,,,0.00,Wunderground v.1.15,2013-03-01 20:53:00,
2013-03-01 14:54:00,37.0,30.1,29.88,NW,306,0.0,3.0,76,0.00,,,0.00,Wunderground v.1.15,2013-03-01 20:54:00,
2013-03-01 14:55:00,36.9,30.4,29.88,NNW,331,4.0,4.0,77,0.00,,,0.00,Wunderground v.1.15,2013-03-01 20:55:00,
2013-03-01 14:56:00,37.0,30.5,29.88,NW,322,3.0,4.0,77,0.00,,,0.00,Wunderground v.1.15,2013-03-01 20:56:00,
2013-03-01 14:58:00,36.8,29.9,29.88,NW,313,3.0,5.0,76,0.00,,,0.00,Wunderground v.1.15,2013-03-01 20:58:00,
2013-03-01 14:59:00,36.8,29.9,29.88,NW,323,0.0,5.0,76,0.00,,,0.00,Wunderground v.1.15,2013-03-01 20:59:00,
2013-03-01 15:00:00,36.8,30.3,29.88,NW,324,0.0,5.0,77,0.00,,,0.00,Wunderground v.1.15,2013-03-01 21:00:00,
2013-03-01 15:01:00,36.7,30.2,29.88,NW,306,5.0,5.0,77,0.00,,,0.00,Wunderground v.1.15,2013-03-01 21:01:00,
2013-03-01 15:03:00,36.6,30.1,29.88,NW,319,0.0,2.0,77,0.00,,,0.00,Wunderground v.1.15,2013-03-01 21:03:00,
2013-03-01 15:04:00,36.6,30.1,29.88,NNW,336,0.0,2.0,77,0.00,,,0.00,Wunderground v.1.15,2013-03-01 21:04:00,
2013-03-01 15:05:00,36.5,30.0,29.88,NNW,336,3.0,3.0,77,0.00,,,0.00,Wunderground v.1.15,2013-03-01 21:05:00,
2013-03-01 15:07:00,36.5,30.0,29.88,NW,307,0.0,4.0,77,0.00,,,0.00,Wunderground v.1.15,2013-03-01 21:07:00,
2013-03-01 15:08:00,36.3,29.8,29.88,NW,309,1.0,7.0,77,0.00,,,0.00,Wunderground v.1.15,2013-03-01 21:08:00,
2013-03-01 15:10:00,36.2,29.7,29.88,NW,311,0.0,7.0,77,0.00,,,0.00,Wunderground v.1.15,2013-03-01 21:10:00,
2013-03-01 15:12:00,36.1,29.9,29.88,NW,323,0.0,1.0,78,0.00,,,0.00,Wunderground v.1.15,2013-03-01 21:12:00,
2013-03-01 15:14:00,36.1,30.2,29.88,NW,324,0.0,1.0,79,0.00,,,0.00,Wunderground v.1.15,2013-03-01 21:14:00,
2013-03-01 15:16:00,36.1,30.2,29.89,NW,323,0.0,1.0,79,0.00,,,0.00,Wunderground v.1.15,2013-03-01 21:16:00,
2013-03-01 15:17:00,36.1,30.2,29.88,NW,317,0.0,1.0,79,0.00,,,0.00,Wunderground v.1.15,2013-03-01 21:17:00,
2013-03-01 15:19:00,36.0,30.1,29.88,NNW,339,0.0,4.0,79,0.00,,,0.00,Wunderground v.1.15,2013-03-01 21:19:00,
2013-03-01 15:21:00,36.0,30.1,29.88,NW,309,0.0,4.0,79,0.00,,,0.00,Wunderground v.1.15,2013-03-01 21:21:00,
2013-03-01 15:22:00,36.0,30.1,29.88,NW,309,0.0,0.0,79,0.00,,,0.00,Wunderground v.1.15,2013-03-01 21:22:00,
2013-03-01 15:23:00,36.0,30.1,29.88,NW,309,0.0,0.0,79,0.00,,,0.00,Wunderground v.1.15,2013-03-01 21:23:00,
2013-03-01 15:24:00,36.0,30.4,29.88,NNW,345,0.0,4.0,80,0.00,,,0.00,Wunderground v.1.15,2013-03-01 21:24:00,
2013-03-01 15:26:00,36.1,30.5,29.88,NNW,344,0.0,4.0,80,0.00,,,0.00,Wunderground v.1.15,2013-03-01 21:26:00,
2013-03-01 15:27:00,36.1,30.2,29.88,NNW,344,0.0,4.0,79,0.00,,,0.00,Wunderground v.1.15,2013-03-01 21:27:00,
2013-03-01 15:28:00,36.1,30.2,29.88,NW,323,2.0,4.0,79,0.00,,,0.00,Wunderground v.1.15,2013-03-01 21:28:00,
2013-03-01 15:29:00,36.1,29.9,29.88,NW,311,3.0,4.0,78,0.00,,,0.00,Wunderground v.1.15,2013-03-01 21:29:00,
2013-03-01 15:31:00,36.1,29.9,29.88,NW,311,0.0,4.0,78,0.00,,,0.00,Wunderground v.1.15,2013-03-01 21:31:00,
2013-03-01 15:33:00,36.2,30.0,29.88,NW,311,0.0,1.0,78,0.00,,,0.00,Wunderground v.1.15,2013-03-01 21:33:00,
2013-03-01 15:35:00,36.2,30.0,29.88,North,351,0.0,1.0,78,0.00,,,0.00,Wunderground v.1.15,2013-03-01 21:35:00,
2013-03-01 15:36:00,36.2,29.7,29.88,NNW,329,4.0,5.0,77,0.00,,,0.00,Wunderground v.1.15,2013-03-01 21:36:00,
2013-03-01 15:38:00,36.3,29.5,29.88,WNW,286,0.0,5.0,76,0.00,,,0.00,Wunderground v.1.15,2013-03-01 21:38:00,
2013-03-01 15:40:00,36.4,29.2,29.88,NW,321,0.0,5.0,75,0.00,,,0.00,Wunderground v.1.15,2013-03-01 21:40:00,
2013-03-01 15:42:00,36.5,29.7,29.88,NW,317,1.0,5.0,76,0.00,,,0.00,Wunderground v.1.15,2013-03-01 21:42:00,
2013-03-01 15:43:00,36.6,29.1,29.88,WNW,288,0.0,1.0,74,0.00,,,0.00,Wunderground v.1.15,2013-03-01 21:43:00,
2013-03-01 15:45:00,36.6,29.1,29.88,NW,309,0.0,1.0,74,0.00,,,0.00,Wunderground v.1.15,2013-03-01 21:45:00,
2013-03-01 15:47:00,36.6,28.8,29.88,NNW,328,0.0,4.0,73,0.00,,,0.00,Wunderground v.1.15,2013-03-01 21:47:00,
2013-03-01 15:48:00,36.7,29.2,29.88,NNW,328,0.0,4.0,74,0.00,,,0.00,Wunderground v.1.15,2013-03-01 21:48:00,
2013-03-01 15:49:00,36.7,29.2,29.88,NNW,335,4.0,5.0,74,0.00,,,0.00,Wunderground v.1.15,2013-03-01 21:49:00,
2013-03-01 15:50:00,36.7,28.9,29.88,NW,321,0.0,5.0,73,0.00,,,0.00,Wunderground v.1.15,2013-03-01 21:50:00,
2013-03-01 15:52:00,36.8,29.3,29.88,NNW,344,0.0,1.0,74,0.00,,,0.00,Wunderground v.1.15,2013-03-01 21:52:00,
2013-03-01 15:53:00,36.8,29.3,29.88,NNW,331,0.0,1.0,74,0.00,,,0.00,Wunderground v.1.15,2013-03-01 21:53:00,
2013-03-01 15:55:00,36.8,29.3,29.88,NW,320,5.0,5.0,74,0.00,,,0.00,Wunderground v.1.15,2013-03-01 21:55:00,
2013-03-01 15:56:00,36.8,29.0,29.88,NW,315,2.0,5.0,73,0.00,,,0.00,Wunderground v.1.15,2013-03-01 21:56:00,
2013-03-01 15:57:00,36.9,28.7,29.88,NW,309,0.0,5.0,72,0.00,,,0.00,Wunderground v.1.15,2013-03-01 21:57:00,
2013-03-01 15:59:00,36.9,28.7,29.88,WNW,302,2.0,8.0,72,0.00,,,0.00,Wunderground v.1.15,2013-03-01 21:59:00,
2013-03-01 16:00:00,36.9,28.7,29.88,NW,319,3.0,8.0,72,0.00,,,0.00,Wunderground v.1.15,2013-03-01 22:00:00,
2013-03-01 16:02:00,36.9,28.7,29.88,NW,319,0.0,8.0,72,0.00,,,0.00,Wunderground v.1.15,2013-03-01 22:02:00,
2013-03-01 16:03:00,36.9,28.7,29.88,NW,318,0.0,1.0,72,0.00,,,0.00,Wunderground v.1.15,2013-03-01 22:03:00,
2013-03-01 16:04:00,36.9,29.1,29.88,NW,323,0.0,3.0,73,0.00,,,0.00,Wunderground v.1.15,2013-03-01 22:04:00,
2013-03-01 16:05:00,36.9,28.7,29.88,NW,315,5.0,5.0,72,0.00,,,0.00,Wunderground v.1.15,2013-03-01 22:05:00,
2013-03-01 16:07:00,36.9,28.7,29.88,NW,306,0.0,5.0,72,0.00,,,0.00,Wunderground v.1.15,2013-03-01 22:07:00,
2013-03-01 16:08:00,36.9,28.4,29.88,NW,306,0.0,5.0,71,0.00,,,0.00,Wunderground v.1.15,2013-03-01 22:08:00,
2013-03-01 16:10:00,36.9,28.4,29.88,NW,306,0.0,5.0,71,0.00,,,0.00,Wunderground v.1.15,2013-03-01 22:10:00,
2013-03-01 16:12:00,36.9,28.0,29.88,WNW,287,0.0,1.0,70,0.00,,,0.00,Wunderground v.1.15,2013-03-01 22:12:00,
2013-03-01 16:13:00,36.9,28.0,29.88,NW,310,2.0,2.0,70,0.00,,,0.00,Wunderground v.1.15,2013-03-01 22:13:00,
2013-03-01 16:15:00,36.9,28.4,29.88,NNW,327,0.0,3.0,71,0.00,,,0.00,Wunderground v.1.15,2013-03-01 22:15:00,
2013-03-01 16:18:00,36.9,28.4,29.88,NW,310,0.0,3.0,71,0.00,,,0.00,Wunderground v.1.15,2013-03-01 22:18:00,
2013-03-01 16:20:00,36.9,28.4,29.88,SW,231,2.0,6.0,71,0.00,,,0.00,Wunderground v.1.15,2013-03-01 22:20:00,
2013-03-01 16:23:00,36.9,28.4,29.88,NW,317,0.0,2.0,71,0.00,,,0.00,Wunderground v.1.15,2013-03-01 22:23:00,
2013-03-01 16:25:00,36.8,28.3,29.88,WNW,294,0.0,2.0,71,0.00,,,0.00,Wunderground v.1.15,2013-03-01 22:25:00,
2013-03-01 16:26:00,36.8,28.3,29.88,WNW,294,0.0,2.0,71,0.00,,,0.00,Wunderground v.1.15,2013-03-01 22:26:00,
2013-03-01 16:28:00,36.8,28.3,29.88,NW,325,4.0,6.0,71,0.00,,,0.00,Wunderground v.1.15,2013-03-01 22:28:00,
2013-03-01 16:31:00,36.8,28.3,29.88,West,275,2.0,6.0,71,0.00,,,0.00,Wunderground v.1.15,2013-03-01 22:31:00,
2013-03-01 16:34:00,36.8,27.9,29.88,NW,319,0.0,3.0,70,0.00,,,0.00,Wunderground v.1.15,2013-03-01 22:34:00,
2013-03-01 16:36:00,36.8,28.3,29.89,NNW,334,0.0,3.0,71,0.00,,,0.00,Wunderground v.1.15,2013-03-01 22:36:00,
2013-03-01 16:39:00,36.9,28.0,29.89,NW,320,1.0,3.0,70,0.00,,,0.00,Wunderground v.1.15,2013-03-01 22:39:00,
2013-03-01 16:41:00,36.9,28.0,29.89,NW,312,1.0,3.0,70,0.00,,,0.00,Wunderground v.1.15,2013-03-01 22:41:00,
2013-03-01 16:44:00,36.9,28.4,29.89,NW,313,0.0,2.0,71,0.00,,,0.00,Wunderground v.1.15,2013-03-01 22:44:00,
2013-03-01 16:45:00,37.0,28.5,29.89,NW,313,0.0,2.0,71,0.00,,,0.00,Wunderground v.1.15,2013-03-01 22:45:00,
2013-03-01 16:46:00,37.0,28.1,29.89,West,271,0.0,2.0,70,0.00,,,0.00,Wunderground v.1.15,2013-03-01 22:46:00,
2013-03-01 16:49:00,37.0,28.1,29.89,NW,313,1.0,4.0,70,0.00,,,0.00,Wunderground v.1.15,2013-03-01 22:49:00,
2013-03-01 16:50:00,37.0,28.1,29.89,NW,313,0.0,4.0,70,0.00,,,0.00,Wunderground v.1.15,2013-03-01 22:50:00,
2013-03-01 16:51:00,37.0,28.1,29.89,NW,313,0.0,4.0,70,0.00,,,0.00,Wunderground v.1.15,2013-03-01 22:51:00,
2013-03-01 16:52:00,37.0,28.1,29.89,NW,313,0.0,4.0,70,0.00,,,0.00,Wunderground v.1.15,2013-03-01 22:52:00,
2013-03-01 16:54:00,37.0,28.1,29.89,NNW,342,0.0,4.0,70,0.00,,,0.00,Wunderground v.1.15,2013-03-01 22:54:00,
2013-03-01 16:55:00,37.0,28.1,29.89,NNW,342,0.0,4.0,70,0.00,,,0.00,Wunderground v.1.15,2013-03-01 22:55:00,
2013-03-01 16:56:00,37.1,28.6,29.89,NW,315,0.0,4.0,71,0.00,,,0.00,Wunderground v.1.15,2013-03-01 22:56:00,
2013-03-01 16:57:00,37.1,28.6,29.89,NW,315,0.0,4.0,71,0.00,,,0.00,Wunderground v.1.15,2013-03-01 22:57:00,
2013-03-01 17:00:00,37.1,28.6,29.89,NW,318,0.0,5.0,71,0.00,,,0.00,Wunderground v.1.15,2013-03-01 23:00:00,
2013-03-01 17:01:00,37.1,28.6,29.89,NW,318,0.0,5.0,71,0.00,,,0.00,Wunderground v.1.15,2013-03-01 23:01:00,
2013-03-01 17:02:00,37.1,28.6,29.89,NW,318,0.0,0.0,71,0.00,,,0.00,Wunderground v.1.15,2013-03-01 23:02:00,
2013-03-01 17:03:00,37.1,28.6,29.89,NW,318,0.0,0.0,71,0.00,,,0.00,Wunderground v.1.15,2013-03-01 23:03:00,
2013-03-01 17:05:00,37.1,28.6,29.90,NW,318,0.0,0.0,71,0.00,,,0.00,Wunderground v.1.15,2013-03-01 23:05:00,
2013-03-01 17:06:00,37.1,28.6,29.90,NW,318,0.0,1.0,71,0.00,,,0.00,Wunderground v.1.15,2013-03-01 23:06:00,
2013-03-01 17:07:00,37.0,28.5,29.90,NW,318,0.0,1.0,71,0.00,,,0.00,Wunderground v.1.15,2013-03-01 23:07:00,
2013-03-01 17:08:00,37.0,28.5,29.90,NW,319,2.0,2.0,71,0.00,,,0.00,Wunderground v.1.15,2013-03-01 23:08:00,
2013-03-01 17:11:00,37.0,28.5,29.90,NW,321,0.0,3.0,71,0.00,,,0.00,Wunderground v.1.15,2013-03-01 23:11:00,
2013-03-01 17:12:00,37.0,28.5,29.90,West,281,0.0,0.0,71,0.00,,,0.00,Wunderground v.1.15,2013-03-01 23:12:00,
2013-03-01 17:13:00,37.0,28.5,29.90,West,281,0.0,0.0,71,0.00,,,0.00,Wunderground v.1.15,2013-03-01 23:13:00,
2013-03-01 17:16:00,37.0,29.5,29.90,NW,315,2.0,7.0,74,0.00,,,0.00,Wunderground v.1.15,2013-03-01 23:16:00,
2013-03-01 17:17:00,36.9,29.4,29.90,NNW,331,2.0,7.0,74,0.00,,,0.00,Wunderground v.1.15,2013-03-01 23:17:00,
2013-03-01 17:18:00,36.8,29.9,29.90,NW,309,5.0,7.0,76,0.00,,,0.00,Wunderground v.1.15,2013-03-01 23:18:00,
2013-03-01 17:21:00,36.3,30.4,29.90,North,355,0.0,10.0,79,0.00,,,0.00,Wunderground v.1.15,2013-03-01 23:21:00,
2013-03-01 17:22:00,36.1,30.5,29.90,NW,323,0.0,3.0,80,0.00,,,0.00,Wunderground v.1.15,2013-03-01 23:22:00,
2013-03-01 17:23:00,36.0,30.4,29.90,NW,323,0.0,3.0,80,0.00,,,0.00,Wunderground v.1.15,2013-03-01 23:23:00,
2013-03-01 17:26:00,35.6,30.3,29.90,NW,323,0.0,3.0,81,0.00,,,0.00,Wunderground v.1.15,2013-03-01 23:26:00,
2013-03-01 17:27:00,35.5,30.2,29.90,NNW,327,2.0,4.0,81,0.00,,,0.00,Wunderground v.1.15,2013-03-01 23:27:00,
2013-03-01 17:28:00,35.4,30.1,29.90,NW,306,0.0,4.0,81,0.00,,,0.00,Wunderground v.1.15,2013-03-01 23:28:00,
2013-03-01 17:31:00,35.2,30.3,29.91,NW,317,0.0,7.0,82,0.00,,,0.00,Wunderground v.1.15,2013-03-01 23:31:00,
2013-03-01 17:33:00,35.2,30.3,29.91,NW,317,0.0,1.0,82,0.00,,,0.00,Wunderground v.1.15,2013-03-01 23:33:00,
2013-03-01 17:34:00,35.1,30.5,29.91,NW,317,0.0,1.0,83,0.00,,,0.00,Wunderground v.1.15,2013-03-01 23:34:00,
2013-03-01 17:37:00,35.0,30.4,29.91,NW,319,0.0,3.0,83,0.00,,,0.00,Wunderground v.1.15,2013-03-01 23:37:00,
2013-03-01 17:38:00,34.9,30.3,29.91,NW,318,0.0,3.0,83,0.00,,,0.00,Wunderground v.1.15,2013-03-01 23:38:00,
2013-03-01 17:39:00,34.9,30.6,29.91,NW,319,0.0,3.0,84,0.00,,,0.00,Wunderground v.1.15,2013-03-01 23:39:00,
2013-03-01 17:42:00,34.8,30.5,29.91,NW,319,0.0,3.0,84,0.00,,,0.00,Wunderground v.1.15,2013-03-01 23:42:00,
2013-03-01 17:43:00,34.8,30.5,29.91,NW,318,0.0,1.0,84,0.00,,,0.00,Wunderground v.1.15,2013-03-01 23:43:00,
2013-03-01 17:44:00,34.8,30.5,29.91,NW,318,0.0,1.0,84,0.00,,,0.00,Wunderground v.1.15,2013-03-01 23:44:00,
2013-03-01 17:45:00,34.8,30.5,29.91,NW,318,0.0,1.0,84,0.00,,,0.00,Wunderground v.1.15,2013-03-01 23:45:00,
2013-03-01 17:47:00,34.7,30.4,29.91,NW,318,0.0,1.0,84,0.00,,,0.00,Wunderground v.1.15,2013-03-01 23:47:00,
2013-03-01 17:49:00,34.7,30.4,29.91,NW,319,0.0,1.0,84,0.00,,,0.00,Wunderground v.1.15,2013-03-01 23:49:00,
2013-03-01 17:50:00,34.7,30.4,29.91,NW,319,0.0,1.0,84,0.00,,,0.00,Wunderground v.1.15,2013-03-01 23:50:00,
2013-03-01 17:52:00,34.7,30.4,29.91,NW,319,0.0,0.0,84,0.00,,,0.00,Wunderground v.1.15,2013-03-01 23:52:00,
2013-03-01 17:54:00,34.8,30.5,29.92,NW,319,0.0,0.0,84,0.00,,,0.00,Wunderground v.1.15,2013-03-01 23:54:00,
2013-03-01 17:55:00,34.8,30.5,29.92,NW,319,0.0,0.0,84,0.00,,,0.00,Wunderground v.1.15,2013-03-01 23:55:00,
2013-03-01 17:57:00,34.8,30.5,29.92,NW,318,0.0,0.0,84,0.00,,,0.00,Wunderground v.1.15,2013-03-01 23:57:00,
2013-03-01 17:59:00,34.8,30.2,29.92,NW,318,0.0,0.0,83,0.00,,,0.00,Wunderground v.1.15,2013-03-01 23:59:00,
2013-03-01 18:00:00,34.9,30.3,29.92,NW,319,0.0,0.0,83,0.00,,,0.00,Wunderground v.1.15,2013-03-02 00:00:00,
2013-03-01 18:01:00,34.9,30.3,29.92,NW,310,0.0,0.0,83,0.00,,,0.00,Wunderground v.1.15,2013-03-02 00:01:00,
2013-03-01 18:02:00,34.9,30.0,29.92,NW,321,0.0,0.0,82,0.00,,,0.00,Wunderground v.1.15,2013-03-02 00:02:00,
2013-03-01 18:04:00,34.9,29.4,29.92,NW,304,1.0,5.0,80,0.00,,,0.00,Wunderground v.1.15,2013-03-02 00:04:00,
2013-03-01 18:05:00,35.0,29.5,29.92,NW,306,0.0,5.0,80,0.00,,,0.00,Wunderground v.1.15,2013-03-02 00:05:00,
2013-03-01 18:06:00,35.0,29.1,29.92,NW,306,0.0,5.0,79,0.00,,,0.00,Wunderground v.1.15,2013-03-02 00:06:00,
2013-03-01 18:08:00,35.1,28.9,29.92,NW,319,1.0,5.0,78,0.00,,,0.00,Wunderground v.1.15,2013-03-02 00:08:00,
2013-03-01 18:10:00,35.1,28.6,29.92,NW,314,0.0,5.0,77,0.00,,,0.00,Wunderground v.1.15,2013-03-02 00:10:00,
2013-03-01 18:11:00,35.2,28.4,29.92,NNW,334,4.0,5.0,76,0.00,,,0.00,Wunderground v.1.15,2013-03-02 00:11:00,
2013-03-01 18:13:00,35.3,28.5,29.92,NW,315,0.0,1.0,76,0.00,,,0.00,Wunderground v.1.15,2013-03-02 00:13:00,
2013-03-01 18:15:00,35.3,28.5,29.92,NW,315,0.0,1.0,76,0.00,,,0.00,Wunderground v.1.15,2013-03-02 00:15:00,
2013-03-01 18:16:00,35.3,28.2,29.92,NNW,334,1.0,4.0,75,0.00,,,0.00,Wunderground v.1.15,2013-03-02 00:16:00,
2013-03-01 18:19:00,35.4,28.6,29.92,North,355,0.0,4.0,76,0.00,,,0.00,Wunderground v.1.15,2013-03-02 00:19:00,
2013-03-01 18:20:00,35.4,28.6,29.92,North,355,0.0,4.0,76,0.00,,,0.00,Wunderground v.1.15,2013-03-02 00:20:00,
2013-03-01 18:21:00,35.4,28.6,29.92,North,355,0.0,4.0,76,0.00,,,0.00,Wunderground v.1.15,2013-03-02 00:21:00,
2013-03-01 18:24:00,35.4,28.6,29.92,NNW,338,0.0,0.0,76,0.00,,,0.00,Wunderground v.1.15,2013-03-02 00:24:00,
2013-03-01 18:25:00,35.4,28.6,29.92,NNW,338,0.0,0.0,76,0.00,,,0.00,Wunderground v.1.15,2013-03-02 00:25:00,
2013-03-01 18:26:00,35.4,28.6,29.92,NNW,338,0.0,0.0,76,0.00,,,0.00,Wunderground v.1.15,2013-03-02 00:26:00,
2013-03-01 18:29:00,35.4,28.6,29.92,NNW,338,0.0,0.0,76,0.00,,,0.00,Wunderground v.1.15,2013-03-02 00:29:00,
2013-03-01 18:30:00,35.4,28.6,29.92,NNW,338,0.0,0.0,76,0.00,,,0.00,Wunderground v.1.15,2013-03-02 00:30:00,
2013-03-01 18:31:00,35.4,28.6,29.92,NNW,338,0.0,0.0,76,0.00,,,0.00,Wunderground v.1.15,2013-03-02 00:31:00,
2013-03-01 18:34:00,35.5,28.7,29.92,WNW,292,0.0,3.0,76,0.00,,,0.00,Wunderground v.1.15,2013-03-02 00:34:00,
2013-03-01 18:36:00,35.5,28.7,29.92,WNW,292,0.0,3.0,76,0.00,,,0.00,Wunderground v.1.15,2013-03-02 00:36:00,
2013-03-01 18:37:00,35.5,28.7,29.92,NW,313,3.0,3.0,76,0.00,,,0.00,Wunderground v.1.15,2013-03-02 00:37:00,
2013-03-01 18:39:00,35.5,28.7,29.92,NW,321,0.0,4.0,76,0.00,,,0.00,Wunderground v.1.15,2013-03-02 00:39:00,
2013-03-01 18:41:00,35.6,28.8,29.92,NW,317,3.0,4.0,76,0.00,,,0.00,Wunderground v.1.15,2013-03-02 00:41:00,
2013-03-01 18:42:00,35.6,28.8,29.92,NW,315,0.0,1.0,76,0.00,,,0.00,Wunderground v.1.15,2013-03-02 00:42:00,
2013-03-01 18:44:00,35.6,28.8,29.92,NW,315,0.0,3.0,76,0.00,,,0.00,Wunderground v.1.15,2013-03-02 00:44:00,
2013-03-01 18:46:00,35.6,28.8,29.93,NNW,334,0.0,4.0,76,0.00,,,0.00,Wunderground v.1.15,2013-03-02 00:46:00,
2013-03-01 18:47:00,35.6,28.8,29.93,WNW,301,0.0,4.0,76,0.00,,,0.00,Wunderground v.1.15,2013-03-02 00:47:00,
2013-03-01 18:50:00,35.6,28.8,29.92,NW,304,0.0,4.0,76,0.00,,,0.00,Wunderground v.1.15,2013-03-02 00:50:00,
2013-03-01 18:51:00,35.7,28.9,29.92,NW,304,0.0,4.0,76,0.00,,,0.00,Wunderground v.1.15,2013-03-02 00:51:00,
2013-03-01 18:53:00,35.6,28.8,29.93,WNW,296,0.0,1.0,76,0.00,,,0.00,Wunderground v.1.15,2013-03-02 00:53:00,
2013-03-01 18:55:00,35.6,28.5,29.92,NW,309,1.0,5.0,75,0.00,,,0.00,Wunderground v.1.15,2013-03-02 00:55:00,
2013-03-01 18:56:00,35.6,28.5,29.92,NNW,331,0.0,5.0,75,0.00,,,0.00,Wunderground v.1.15,2013-03-02 00:56:00,
2013-03-01 18:57:00,35.7,28.6,29.92,NNW,331,0.0,5.0,75,0.00,,,0.00,Wunderground v.1.15,2013-03-02 00:57:00,
2013-03-01 18:58:00,35.7,28.9,29.92,NNW,330,0.0,5.0,76,0.00,,,0.00,Wunderground v.1.15,2013-03-02 00:58:00,
2013-03-01 19:00:00,35.7,28.6,29.93,NW,315,0.0,5.0,75,0.00,,,0.00,Wunderground v.1.15,2013-03-02 01:00:00,
2013-03-01 19:01:00,35.6,28.5,29.92,NW,315,0.0,5.0,75,0.00,,,0.00,Wunderground v.1.15,2013-03-02 01:01:00,
2013-03-01 19:03:00,35.7,28.6,29.92,NW,315,0.0,0.0,75,0.00,,,0.00,Wunderground v.1.15,2013-03-02 01:03:00,
2013-03-01 19:04:00,35.7,28.9,29.92,NW,315,0.0,0.0,76,0.00,,,0.00,Wunderground v.1.15,2013-03-02 01:04:00,
2013-03-01 19:05:00,35.6,28.5,29.93,NW,321,0.0,3.0,75,0.00,,,0.00,Wunderground v.1.15,2013-03-02 01:05:00,
2013-03-01 19:07:00,35.6,28.1,29.93,NW,325,0.0,3.0,74,0.00,,,0.00,Wunderground v.1.15,2013-03-02 01:07:00,
2013-03-01 19:08:00,35.6,28.1,29.92,NW,304,0.0,3.0,74,0.00,,,0.00,Wunderground v.1.15,2013-03-02 01:08:00,
2013-03-01 19:09:00,35.6,28.1,29.92,NNE,21,3.0,3.0,74,0.00,,,0.00,Wunderground v.1.15,2013-03-02 01:09:00,
2013-03-01 19:10:00,35.6,28.1,29.93,NW,315,0.0,7.0,74,0.00,,,0.00,Wunderground v.1.15,2013-03-02 01:10:00,
2013-03-01 19:12:00,35.6,28.1,29.93,NW,315,0.0,1.0,74,0.00,,,0.00,Wunderground v.1.15,2013-03-02 01:12:00,
2013-03-01 19:14:00,35.6,28.1,29.93,NW,316,0.0,1.0,74,0.00,,,0.00,Wunderground v.1.15,2013-03-02 01:14:00,
2013-03-01 19:15:00,35.6,28.1,29.93,North,355,0.0,1.0,74,0.00,,,0.00,Wunderground v.1.15,2013-03-02 01:15:00,
2013-03-01 19:17:00,35.6,27.8,29.93,NW,306,1.0,3.0,73,0.00,,,0.00,Wunderground v.1.15,2013-03-02 01:17:00,
2013-03-01 19:19:00,35.6,27.8,29.93,NW,317,2.0,3.0,73,0.00,,,0.00,Wunderground v.1.15,2013-03-02 01:19:00,
2013-03-01 19:20:00,35.6,27.8,29.93,NW,317,0.0,3.0,73,0.00,,,0.00,Wunderground v.1.15,2013-03-02 01:20:00,
2013-03-01 19:23:00,35.6,27.8,29.93,NW,317,0.0,0.0,73,0.00,,,0.00,Wunderground v.1.15,2013-03-02 01:23:00,
2013-03-01 19:24:00,35.6,27.8,29.93,NW,317,0.0,0.0,73,0.00,,,0.00,Wunderground v.1.15,2013-03-02 01:24:00,
2013-03-01 19:25:00,35.6,28.1,29.93,NW,310,2.0,4.0,74,0.00,,,0.00,Wunderground v.1.15,2013-03-02 01:25:00,
2013-03-01 19:26:00,35.6,27.8,29.93,NNW,345,1.0,4.0,73,0.00,,,0.00,Wunderground v.1.15,2013-03-02 01:26:00,
2013-03-01 19:29:00,35.6,27.8,29.93,NW,317,0.0,4.0,73,0.00,,,0.00,Wunderground v.1.15,2013-03-02 01:29:00,
2013-03-01 19:30:00,35.6,27.8,29.93,NW,317,0.0,4.0,73,0.00,,,0.00,Wunderground v.1.15,2013-03-02 01:30:00,
2013-03-01 19:32:00,35.6,27.8,29.93,NW,317,0.0,1.0,73,0.00,,,0.00,Wunderground v.1.15,2013-03-02 01:32:00,
2013-03-01 19:34:00,35.6,27.8,29.93,NW,317,0.0,1.0,73,0.00,,,0.00,Wunderground v.1.15,2013-03-02 01:34:00,
2013-03-01 19:35:00,35.6,27.8,29.93,NW,317,0.0,1.0,73,0.00,,,0.00,Wunderground v.1.15,2013-03-02 01:35:00,
2013-03-01 19:37:00,35.6,27.8,29.93,NNW,338,0.0,1.0,73,0.00,,,0.00,Wunderground v.1.15,2013-03-02 01:37:00,
2013-03-01 19:39:00,35.5,27.7,29.93,NW,314,0.0,3.0,73,0.00,,,0.00,Wunderground v.1.15,2013-03-02 01:39:00,
2013-03-01 19:40:00,35.5,27.7,29.93,NW,314,0.0,3.0,73,0.00,,,0.00,Wunderground v.1.15,2013-03-02 01:40:00,
2013-03-01 19:42:00,35.5,28.0,29.93,NNW,327,2.0,2.0,74,0.00,,,0.00,Wunderground v.1.15,2013-03-02 01:42:00,
2013-03-01 19:44:00,35.5,27.7,29.93,North,355,0.0,2.0,73,0.00,,,0.00,Wunderground v.1.15,2013-03-02 01:44:00,
2013-03-01 19:45:00,35.5,28.0,29.93,North,355,0.0,2.0,74,0.00,,,0.00,Wunderground v.1.15,2013-03-02 01:45:00,
2013-03-01 19:46:00,35.5,28.0,29.93,NNW,343,0.0,2.0,74,0.00,,,0.00,Wunderground v.1.15,2013-03-02 01:46:00,
2013-03-01 19:47:00,35.5,28.0,29.93,NNW,342,0.0,2.0,74,0.00,,,0.00,Wunderground v.1.15,2013-03-02 01:47:00,
2013-03-01 19:49:00,35.5,27.7,29.93,NNW,327,3.0,6.0,73,0.00,,,0.00,Wunderground v.1.15,2013-03-02 01:49:00,
2013-03-01 19:51:00,35.5,27.7,29.93,NNE,14,0.0,6.0,73,0.00,,,0.00,Wunderground v.1.15,2013-03-02 01:51:00,
2013-03-01 19:53:00,35.5,28.0,29.93,NNE,14,0.0,1.0,74,0.00,,,0.00,Wunderground v.1.15,2013-03-02 01:53:00,
2013-03-01 19:55:00,35.5,28.0,29.93,NNW,348,0.0,1.0,74,0.00,,,0.00,Wunderground v.1.15,2013-03-02 01:55:00,
2013-03-01 19:56:00,35.5,28.0,29.93,NNW,346,0.0,1.0,74,0.00,,,0.00,Wunderground v.1.15,2013-03-02 01:56:00,
2013-03-01 19:57:00,35.5,27.7,29.93,NW,321,0.0,1.0,73,0.00,,,0.00,Wunderground v.1.15,2013-03-02 01:57:00,
2013-03-01 19:59:00,35.5,27.7,29.93,NW,321,0.0,1.0,73,0.00,,,0.00,Wunderground v.1.15,2013-03-02 01:59:00,
2013-03-01 20:00:00,35.5,27.7,29.93,NW,321,0.0,1.0,73,0.00,,,0.00,Wunderground v.1.15,2013-03-02 02:00:00,
2013-03-01 20:01:00,35.5,28.0,29.93,NW,321,0.0,1.0,74,0.00,,,0.00,Wunderground v.1.15,2013-03-02 02:01:00,
2013-03-01 20:02:00,35.5,28.0,29.93,NW,321,0.0,0.0,74,0.00,,,0.00,Wunderground v.1.15,2013-03-02 02:02:00,
2013-03-01 20:04:00,35.5,28.0,29.93,West,271,2.0,3.0,74,0.00,,,0.00,Wunderground v.1.15,2013-03-02 02:04:00,
2013-03-01 20:05:00,35.5,27.7,29.93,West,271,0.0,3.0,73,0.00,,,0.00,Wunderground v.1.15,2013-03-02 02:05:00,
2013-03-01 20:06:00,35.5,27.7,29.93,WNW,287,1.0,3.0,73,0.00,,,0.00,Wunderground v.1.15,2013-03-02 02:06:00,
2013-03-01 20:07:00,35.5,27.7,29.93,WNW,302,0.0,4.0,73,0.00,,,0.00,Wunderground v.1.15,2013-03-02 02:07:00,
2013-03-01 20:09:00,35.5,27.7,29.93,WNW,303,0.0,5.0,73,0.00,,,0.00,Wunderground v.1.15,2013-03-02 02:09:00,
2013-03-01 20:10:00,35.5,27.7,29.93,WNW,303,0.0,5.0,73,0.00,,,0.00,Wunderground v.1.15,2013-03-02 02:10:00,
2013-03-01 20:11:00,35.6,27.8,29.93,North,355,0.0,5.0,73,0.00,,,0.00,Wunderground v.1.15,2013-03-02 02:11:00,
2013-03-01 20:12:00,35.5,27.7,29.93,NNW,345,0.0,1.0,73,0.00,,,0.00,Wunderground v.1.15,2013-03-02 02:12:00,
2013-03-01 20:14:00,35.5,27.7,29.93,North,5,1.0,2.0,73,0.00,,,0.00,Wunderground v.1.15,2013-03-02 02:14:00,
2013-03-01 20:15:00,35.5,27.7,29.93,WNW,296,1.0,3.0,73,0.00,,,0.00,Wunderground v.1.15,2013-03-02 02:15:00,
2013-03-01 20:16:00,35.5,27.7,29.93,WNW,296,0.0,3.0,73,0.00,,,0.00,Wunderground v.1.15,2013-03-02 02:16:00,
2013-03-01 20:17:00,35.5,27.7,29.93,WNW,290,1.0,4.0,73,0.00,,,0.00,Wunderground v.1.15,2013-03-02 02:17:00,
2013-03-01 20:19:00,35.6,27.8,29.93,NW,308,0.0,4.0,73,0.00,,,0.00,Wunderground v.1.15,2013-03-02 02:19:00,
2013-03-01 20:20:00,35.6,27.8,29.93,NW,326,0.0,4.0,73,0.00,,,0.00,Wunderground v.1.15,2013-03-02 02:20:00,
2013-03-01 20:21:00,35.6,27.5,29.93,North,349,0.0,4.0,72,0.00,,,0.00,Wunderground v.1.15,2013-03-02 02:21:00,
2013-03-01 20:23:00,35.6,27.5,29.93,NW,311,2.0,3.0,72,0.00,,,0.00,Wunderground v.1.15,2013-03-02 02:23:00,
2013-03-01 20:25:00,35.6,28.8,29.93,NW,313,0.0,4.0,76,0.00,,,0.00,Wunderground v.1.15,2013-03-02 02:25:00,
2013-03-01 20:26:00,35.6,28.8,29.93,NW,313,0.0,4.0,76,0.00,,,0.00,Wunderground v.1.15,2013-03-02 02:26:00,
2013-03-01 20:27:00,35.6,27.5,29.93,NW,313,0.0,4.0,72,0.00,,,0.00,Wunderground v.1.15,2013-03-02 02:27:00,
2013-03-01 20:28:00,35.6,27.5,29.93,NW,321,0.0,5.0,72,0.00,,,0.00,Wunderground v.1.15,2013-03-02 02:28:00,
2013-03-01 20:30:00,35.6,27.8,29.93,NW,321,0.0,5.0,73,0.00,,,0.00,Wunderground v.1.15,2013-03-02 02:30:00,
2013-03-01 20:31:00,35.6,27.5,29.93,NW,321,0.0,5.0,72,0.00,,,0.00,Wunderground v.1.15,2013-03-02 02:31:00,
2013-03-01 20:32:00,35.6,27.5,29.93,NW,321,0.0,5.0,72,0.00,,,0.00,Wunderground v.1.15,2013-03-02 02:32:00,
2013-03-01 20:34:00,35.6,27.5,29.93,NW,321,0.0,1.0,72,0.00,,,0.00,Wunderground v.1.15,2013-03-02 02:34:00,
2013-03-01 20:36:00,35.6,27.5,29.93,NW,319,1.0,2.0,72,0.00,,,0.00,Wunderground v.1.15,2013-03-02 02:36:00,
2013-03-01 20:37:00,35.6,27.8,29.93,NW,319,0.0,2.0,73,0.00,,,0.00,Wunderground v.1.15,2013-03-02 02:37:00,
2013-03-01 20:39:00,35.5,27.7,29.93,NW,319,0.0,2.0,73,0.00,,,0.00,Wunderground v.1.15,2013-03-02 02:39:00,
2013-03-01 20:41:00,35.5,27.4,29.93,NW,310,0.0,3.0,72,0.00,,,0.00,Wunderground v.1.15,2013-03-02 02:41:00,
2013-03-01 20:42:00,35.6,27.5,29.93,NW,314,3.0,5.0,72,0.00,,,0.00,Wunderground v.1.15,2013-03-02 02:42:00,
2013-03-01 20:43:00,35.6,27.5,29.93,NNW,328,0.0,3.0,72,0.00,,,0.00,Wunderground v.1.15,2013-03-02 02:43:00,
2013-03-01 20:44:00,35.6,27.5,29.93,NNW,328,0.0,3.0,72,0.00,,,0.00,Wunderground v.1.15,2013-03-02 02:44:00,
2013-03-01 20:46:00,35.5,27.7,29.93,NNW,328,0.0,3.0,73,0.00,,,0.00,Wunderground v.1.15,2013-03-02 02:46:00,
2013-03-01 20:47:00,35.6,27.8,29.93,NNW,328,0.0,3.0,73,0.00,,,0.00,Wunderground v.1.15,2013-03-02 02:47:00,
2013-03-01 20:48:00,35.5,27.7,29.93,NW,314,0.0,3.0,73,0.00,,,0.00,Wunderground v.1.15,2013-03-02 02:48:00,
2013-03-01 20:49:00,35.5,27.7,29.93,NW,314,0.0,3.0,73,0.00,,,0.00,Wunderground v.1.15,2013-03-02 02:49:00,
2013-03-01 20:52:00,35.5,27.7,29.93,NW,325,3.0,5.0,73,0.00,,,0.00,Wunderground v.1.15,2013-03-02 02:52:00,
2013-03-01 20:54:00,35.5,27.4,29.93,WNW,293,2.0,5.0,72,0.00,,,0.00,Wunderground v.1.15,2013-03-02 02:54:00,
2013-03-01 20:55:00,35.5,27.4,29.93,NW,309,2.0,5.0,72,0.00,,,0.00,Wunderground v.1.15,2013-03-02 02:55:00,
2013-03-01 20:57:00,35.5,27.4,29.93,NNE,12,0.0,6.0,72,0.00,,,0.00,Wunderground v.1.15,2013-03-02 02:57:00,
2013-03-01 20:59:00,35.5,27.0,29.93,NW,304,3.0,6.0,71,0.00,,,0.00,Wunderground v.1.15,2013-03-02 02:59:00,
2013-03-01 21:00:00,35.5,27.0,29.93,NW,306,0.0,6.0,71,0.00,,,0.00,Wunderground v.1.15,2013-03-02 03:00:00,
2013-03-01 21:02:00,35.5,27.4,29.93,WNW,298,0.0,3.0,72,0.00,,,0.00,Wunderground v.1.15,2013-03-02 03:02:00,
2013-03-01 21:03:00,35.5,27.4,29.93,West,273,1.0,3.0,72,0.00,,,0.00,Wunderground v.1.15,2013-03-02 03:03:00,
2013-03-01 21:04:00,35.5,27.4,29.93,NW,321,6.0,6.0,72,0.00,,,0.00,Wunderground v.1.15,2013-03-02 03:04:00,
2013-03-01 21:05:00,35.5,27.4,29.93,NW,326,2.0,6.0,72,0.00,,,0.00,Wunderground v.1.15,2013-03-02 03:05:00,
2013-03-01 21:07:00,35.5,27.4,29.93,WNW,292,1.0,6.0,72,0.00,,,0.00,Wunderground v.1.15,2013-03-02 03:07:00,
2013-03-01 21:08:00,35.5,27.0,29.93,NW,313,0.0,6.0,71,0.00,,,0.00,Wunderground v.1.15,2013-03-02 03:08:00,
2013-03-01 21:10:00,35.5,27.4,29.93,NW,313,0.0,6.0,72,0.00,,,0.00,Wunderground v.1.15,2013-03-02 03:10:00,
2013-03-01 21:13:00,35.5,27.4,29.93,NW,325,0.0,1.0,72,0.00,,,0.00,Wunderground v.1.15,2013-03-02 03:13:00,
2013-03-01 21:14:00,35.5,27.4,29.93,NW,325,0.0,1.0,72,0.00,,,0.00,Wunderground v.1.15,2013-03-02 03:14:00,
2013-03-01 21:15:00,35.4,27.3,29.93,NNW,327,0.0,2.0,72,0.00,,,0.00,Wunderground v.1.15,2013-03-02 03:15:00,
2013-03-01 21:18:00,35.4,27.3,29.93,NNW,327,0.0,4.0,72,0.00,,,0.00,Wunderground v.1.15,2013-03-02 03:18:00,
2013-03-01 21:19:00,35.4,27.3,29.93,NW,326,0.0,4.0,72,0.00,,,0.00,Wunderground v.1.15,2013-03-02 03:19:00,
2013-03-01 21:20:00,35.4,27.3,29.93,NW,324,0.0,4.0,72,0.00,,,0.00,Wunderground v.1.15,2013-03-02 03:20:00,
2013-03-01 21:23:00,35.4,27.3,29.93,NNW,332,0.0,3.0,72,0.00,,,0.00,Wunderground v.1.15,2013-03-02 03:23:00,
2013-03-01 21:24:00,35.4,27.3,29.93,NW,312,3.0,4.0,72,0.00,,,0.00,Wunderground v.1.15,2013-03-02 03:24:00,
2013-03-01 21:25:00,35.3,27.2,29.93,NW,311,3.0,4.0,72,0.00,,,0.00,Wunderground v.1.15,2013-03-02 03:25:00,
2013-03-01 21:26:00,35.4,27.3,29.93,WNW,300,1.0,4.0,72,0.00,,,0.00,Wunderground v.1.15,2013-03-02 03:26:00,
2013-03-01 21:28:00,35.3,27.2,29.93,NW,313,2.0,4.0,72,0.00,,,0.00,Wunderground v.1.15,2013-03-02 03:28:00,
2013-03-01 21:29:00,35.3,27.2,29.94,NW,308,4.0,5.0,72,0.00,,,0.00,Wunderground v.1.15,2013-03-02 03:29:00,
2013-03-01 21:31:00,35.3,27.2,29.93,NW,323,5.0,7.0,72,0.00,,,0.00,Wunderground v.1.15,2013-03-02 03:31:00,
2013-03-01 21:33:00,35.3,27.2,29.93,NW,310,0.0,3.0,72,0.00,,,0.00,Wunderground v.1.15,2013-03-02 03:33:00,
2013-03-01 21:35:00,35.3,27.5,29.94,NW,324,4.0,5.0,73,0.00,,,0.00,Wunderground v.1.15,2013-03-02 03:35:00,
2013-03-01 21:36:00,35.3,27.5,29.94,NW,310,0.0,7.0,73,0.00,,,0.00,Wunderground v.1.15,2013-03-02 03:36:00,
2013-03-01 21:38:00,35.2,27.4,29.94,NW,314,0.0,7.0,73,0.00,,,0.00,Wunderground v.1.15,2013-03-02 03:38:00,
2013-03-01 21:40:00,35.2,27.4,29.94,NNW,327,1.0,7.0,73,0.00,,,0.00,Wunderground v.1.15,2013-03-02 03:40:00,
2013-03-01 21:42:00,35.2,27.7,29.94,NW,322,1.0,7.0,74,0.00,,,0.00,Wunderground v.1.15,2013-03-02 03:42:00,
2013-03-01 21:43:00,35.2,27.4,29.94,NW,325,0.0,5.0,73,0.00,,,0.00,Wunderground v.1.15,2013-03-02 03:43:00,
2013-03-01 21:45:00,35.1,27.6,29.94,NNW,334,2.0,5.0,74,0.00,,,0.00,Wunderground v.1.15,2013-03-02 03:45:00,
2013-03-01 21:47:00,35.1,27.3,29.94,NW,308,0.0,7.0,73,0.00,,,0.00,Wunderground v.1.15,2013-03-02 03:47:00,
2013-03-01 21:49:00,35.0,27.5,29.94,WNW,299,4.0,7.0,74,0.00,,,0.00,Wunderground v.1.15,2013-03-02 03:49:00,
2013-03-01 21:50:00,35.0,27.5,29.94,WNW,302,2.0,7.0,74,0.00,,,0.00,Wunderground v.1.15,2013-03-02 03:50:00,
2013-03-01 21:52:00,35.0,27.9,29.94,NNW,331,7.0,7.0,75,0.00,,,0.00,Wunderground v.1.15,2013-03-02 03:52:00,
2013-03-01 21:53:00,35.0,27.9,29.94,WNW,290,3.0,7.0,75,0.00,,,0.00,Wunderground v.1.15,2013-03-02 03:53:00,
2013-03-01 21:54:00,34.9,27.8,29.94,NW,315,3.0,7.0,75,0.00,,,0.00,Wunderground v.1.15,2013-03-02 03:54:00,
2013-03-01 21:55:00,34.8,27.7,29.94,NNW,339,5.0,7.0,75,0.00,,,0.00,Wunderground v.1.15,2013-03-02 03:55:00,
2013-03-01 21:57:00,34.8,27.4,29.94,NW,324,3.0,7.0,74,0.00,,,0.00,Wunderground v.1.15,2013-03-02 03:57:00,
2013-03-01 21:58:00,34.8,27.7,29.94,NW,314,3.0,7.0,75,0.00,,,0.00,Wunderground v.1.15,2013-03-02 03:58:00,
2013-03-01 21:59:00,34.7,27.3,29.94,NW,311,8.0,8.0,74,0.00,,,0.00,Wunderground v.1.15,2013-03-02 03:59:00,
2013-03-01 22:01:00,34.6,27.2,29.94,NNW,336,0.0,8.0,74,0.00,,,0.00,Wunderground v.1.15,2013-03-02 04:01:00,
2013-03-01 22:02:00,34.6,27.2,29.94,NW,307,6.0,6.0,74,0.00,,,0.00,Wunderground v.1.15,2013-03-02 04:02:00,
2013-03-01 22:03:00,34.6,27.2,29.94,West,277,3.0,6.0,74,0.00,,,0.00,Wunderground v.1.15,2013-03-02 04:03:00,
2013-03-01 22:04:00,34.6,27.2,29.94,NW,311,5.0,6.0,74,0.00,,,0.00,Wunderground v.1.15,2013-03-02 04:04:00,
2013-03-01 22:06:00,34.5,27.1,29.94,NW,322,0.0,6.0,74,0.00,,,0.00,Wunderground v.1.15,2013-03-02 04:06:00,
2013-03-01 22:07:00,34.4,27.0,29.94,WNW,288,1.0,6.0,74,0.00,,,0.00,Wunderground v.1.15,2013-03-02 04:07:00,
2013-03-01 22:08:00,34.4,27.0,29.94,NNW,342,3.0,6.0,74,0.00,,,0.00,Wunderground v.1.15,2013-03-02 04:08:00,
2013-03-01 22:10:00,34.4,27.0,29.94,NW,306,1.0,6.0,74,0.00,,,0.00,Wunderground v.1.15,2013-03-02 04:10:00,
2013-03-01 22:11:00,34.4,27.0,29.94,NW,304,0.0,6.0,74,0.00,,,0.00,Wunderground v.1.15,2013-03-02 04:11:00,
2013-03-01 22:13:00,34.4,27.3,29.94,WNW,291,0.0,2.0,75,0.00,,,0.00,Wunderground v.1.15,2013-03-02 04:13:00,
2013-03-01 22:16:00,34.4,27.3,29.94,NW,314,0.0,4.0,75,0.00,,,0.00,Wunderground v.1.15,2013-03-02 04:16:00,
2013-03-01 22:18:00,34.4,27.3,29.94,NNW,346,0.0,4.0,75,0.00,,,0.00,Wunderground v.1.15,2013-03-02 04:18:00,
2013-03-01 22:19:00,34.4,27.3,29.94,WNW,300,2.0,4.0,75,0.00,,,0.00,Wunderground v.1.15,2013-03-02 04:19:00,
2013-03-01 22:21:00,34.4,27.3,29.94,NW,315,0.0,4.0,75,0.00,,,0.00,Wunderground v.1.15,2013-03-02 04:21:00,
2013-03-01 22:22:00,34.4,27.3,29.94,NW,304,0.0,4.0,75,0.00,,,0.00,Wunderground v.1.15,2013-03-02 04:22:00,
2013-03-01 22:23:00,34.3,27.2,29.93,NNW,337,1.0,1.0,75,0.00,,,0.00,Wunderground v.1.15,2013-03-02 04:23:00,
2013-03-01 22:24:00,34.3,27.2,29.94,NNW,333,3.0,3.0,75,0.00,,,0.00,Wunderground v.1.15,2013-03-02 04:24:00,
2013-03-01 22:26:00,34.3,27.5,29.93,NW,313,1.0,3.0,76,0.00,,,0.00,Wunderground v.1.15,2013-03-02 04:26:00,
2013-03-01 22:27:00,34.2,27.1,29.93,NW,315,2.0,6.0,75,0.00,,,0.00,Wunderground v.1.15,2013-03-02 04:27:00,
2013-03-01 22:29:00,34.2,27.1,29.93,NW,315,0.0,6.0,75,0.00,,,0.00,Wunderground v.1.15,2013-03-02 04:29:00,
2013-03-01 22:31:00,34.1,27.3,29.93,NW,312,0.0,6.0,76,0.00,,,0.00,Wunderground v.1.15,2013-03-02 04:31:00,
2013-03-01 22:33:00,34.1,27.0,29.93,NW,310,0.0,1.0,75,0.00,,,0.00,Wunderground v.1.15,2013-03-02 04:33:00,
2013-03-01 22:34:00,34.1,27.0,29.93,NNW,327,2.0,4.0,75,0.00,,,0.00,Wunderground v.1.15,2013-03-02 04:34:00,
2013-03-01 22:36:00,34.0,26.9,29.93,NNW,337,4.0,5.0,75,0.00,,,0.00,Wunderground v.1.15,2013-03-02 04:36:00,
2013-03-01 22:38:00,34.0,26.6,29.94,NNW,332,1.0,8.0,74,0.00,,,0.00,Wunderground v.1.15,2013-03-02 04:38:00,
2013-03-01 22:39:00,34.0,26.9,29.93,NW,313,2.0,8.0,75,0.00,,,0.00,Wunderground v.1.15,2013-03-02 04:39:00,
2013-03-01 22:40:00,33.9,26.8,29.94,WNW,300,2.0,8.0,75,0.00,,,0.00,Wunderground v.1.15,2013-03-02 04:40:00,
2013-03-01 22:42:00,33.9,26.8,29.93,NNW,329,4.0,4.0,75,0.00,,,0.00,Wunderground v.1.15,2013-03-02 04:42:00,
2013-03-01 22:43:00,33.9,26.8,29.93,NNW,329,4.0,4.0,75,0.00,,,0.00,Wunderground v.1.15,2013-03-02 04:43:00,
2013-03-01 22:45:00,33.9,26.8,29.93,NW,326,0.0,4.0,75,0.00,,,0.00,Wunderground v.1.15,2013-03-02 04:45:00,
2013-03-01 22:46:00,33.9,27.1,29.93,NW,311,2.0,4.0,76,0.00,,,0.00,Wunderground v.1.15,2013-03-02 04:46:00,
2013-03-01 22:47:00,33.8,27.0,29.93,NW,326,2.0,4.0,76,0.00,,,0.00,Wunderground v.1.15,2013-03-02 04:47:00,
2013-03-01 22:48:00,33.8,27.0,29.93,North,360,4.0,4.0,76,0.00,,,0.00,Wunderground v.1.15,2013-03-02 04:48:00,
2013-03-01 22:50:00,33.8,27.0,29.93,NW,325,0.0,4.0,76,0.00,,,0.00,Wunderground v.1.15,2013-03-02 04:50:00,
2013-03-01 22:51:00,33.8,27.0,29.93,NW,325,0.0,4.0,76,0.00,,,0.00,Wunderground v.1.15,2013-03-02 04:51:00,
2013-03-01 22:53:00,33.8,27.0,29.93,NNW,337,0.0,3.0,76,0.00,,,0.00,Wunderground v.1.15,2013-03-02 04:53:00,
2013-03-01 22:54:00,33.8,27.0,29.93,NNW,337,0.0,3.0,76,0.00,,,0.00,Wunderground v.1.15,2013-03-02 04:54:00,
2013-03-01 22:56:00,33.8,27.0,29.93,NW,318,0.0,3.0,76,0.00,,,0.00,Wunderground v.1.15,2013-03-02 04:56:00,
2013-03-01 22:58:00,33.7,27.3,29.93,NW,319,0.0,3.0,77,0.00,,,0.00,Wunderground v.1.15,2013-03-02 04:58:00,
2013-03-01 22:59:00,33.7,27.3,29.93,WNW,299,0.0,3.0,77,0.00,,,0.00,Wunderground v.1.15,2013-03-02 04:59:00,
2013-03-01 23:00:00,33.7,27.3,29.93,WNW,295,3.0,3.0,77,0.00,,,0.00,Wunderground v.1.15,2013-03-02 05:00:00,
2013-03-01 23:01:00,33.7,27.3,29.93,NW,305,0.0,4.0,77,0.00,,,0.00,Wunderground v.1.15,2013-03-02 05:01:00,
2013-03-01 23:05:00,33.6,27.2,29.93,NW,317,0.0,3.0,77,0.00,,,0.00,Wunderground v.1.15,2013-03-02 05:05:00,
2013-03-01 23:06:00,33.6,27.2,29.93,NW,317,0.0,3.0,77,0.00,,,0.00,Wunderground v.1.15,2013-03-02 05:06:00,
2013-03-01 23:10:00,33.5,27.4,29.93,WNW,302,3.0,4.0,78,0.00,,,0.00,Wunderground v.1.15,2013-03-02 05:10:00,
2013-03-01 23:11:00,33.5,27.4,29.93,NW,307,0.0,4.0,78,0.00,,,0.00,Wunderground v.1.15,2013-03-02 05:11:00,
2013-03-01 23:12:00,33.5,27.4,29.93,NW,307,0.0,4.0,78,0.00,,,0.00,Wunderground v.1.15,2013-03-02 05:12:00,
2013-03-01 23:15:00,33.4,27.6,29.93,NW,319,3.0,7.0,79,0.00,,,0.00,Wunderground v.1.15,2013-03-02 05:15:00,
2013-03-01 23:16:00,33.4,27.6,29.93,NNW,340,2.0,7.0,79,0.00,,,0.00,Wunderground v.1.15,2013-03-02 05:16:00,
2013-03-01 23:17:00,33.4,27.6,29.93,WNW,299,3.0,7.0,79,0.00,,,0.00,Wunderground v.1.15,2013-03-02 05:17:00,
2013-03-01 23:20:00,33.3,27.8,29.93,NW,326,0.0,7.0,80,0.00,,,0.00,Wunderground v.1.15,2013-03-02 05:20:00,
2013-03-01 23:21:00,33.3,27.8,29.93,NNW,327,0.0,7.0,80,0.00,,,0.00,Wunderground v.1.15,2013-03-02 05:21:00,
2013-03-01 23:22:00,33.3,27.8,29.93,NW,306,0.0,1.0,80,0.00,,,0.00,Wunderground v.1.15,2013-03-02 05:22:00,
2013-03-01 23:25:00,33.3,28.1,29.93,WNW,300,1.0,4.0,81,0.00,,,0.00,Wunderground v.1.15,2013-03-02 05:25:00,
2013-03-01 23:26:00,33.2,28.0,29.93,NW,319,0.0,4.0,81,0.00,,,0.00,Wunderground v.1.15,2013-03-02 05:26:00,
2013-03-01 23:27:00,33.2,28.0,29.93,NNW,331,2.0,4.0,81,0.00,,,0.00,Wunderground v.1.15,2013-03-02 05:27:00,
2013-03-01 23:30:00,33.2,28.0,29.93,NW,324,3.0,6.0,81,0.00,,,0.00,Wunderground v.1.15,2013-03-02 05:30:00,
2013-03-01 23:32:00,33.2,28.0,29.93,North,5,4.0,6.0,81,0.00,,,0.00,Wunderground v.1.15,2013-03-02 05:32:00,
2013-03-01 23:33:00,33.2,28.0,29.93,WNW,302,2.0,2.0,81,0.00,,,0.00,Wunderground v.1.15,2013-03-02 05:33:00,
2013-03-01 23:34:00,33.1,28.2,29.93,NNW,331,0.0,6.0,82,0.00,,,0.00,Wunderground v.1.15,2013-03-02 05:34:00,
2013-03-01 23:36:00,33.1,28.2,29.93,NNW,343,0.0,6.0,82,0.00,,,0.00,Wunderground v.1.15,2013-03-02 05:36:00,
2013-03-01 23:37:00,33.1,28.2,29.93,NNW,342,0.0,6.0,82,0.00,,,0.00,Wunderground v.1.15,2013-03-02 05:37:00,
2013-03-01 23:38:00,33.0,28.4,29.93,NNW,330,0.0,6.0,83,0.00,,,0.00,Wunderground v.1.15,2013-03-02 05:38:00,
2013-03-01 23:40:00,33.0,28.4,29.93,NNE,25,1.0,6.0,83,0.00,,,0.00,Wunderground v.1.15,2013-03-02 05:40:00,
2013-03-01 23:41:00,32.9,28.3,29.93,NW,321,0.0,6.0,83,0.00,,,0.00,Wunderground v.1.15,2013-03-02 05:41:00,
2013-03-01 23:42:00,32.9,28.3,29.93,NW,321,0.0,6.0,83,0.00,,,0.00,Wunderground v.1.15,2013-03-02 05:42:00,
2013-03-01 23:43:00,32.9,28.3,29.93,NW,304,2.0,4.0,83,0.00,,,0.00,Wunderground v.1.15,2013-03-02 05:43:00,
2013-03-01 23:45:00,32.8,28.2,29.93,NNW,338,0.0,4.0,83,0.00,,,0.00,Wunderground v.1.15,2013-03-02 05:45:00,
2013-03-01 23:46:00,32.8,28.2,29.93,NW,313,3.0,5.0,83,0.00,,,0.00,Wunderground v.1.15,2013-03-02 05:46:00,
2013-03-01 23:47:00,32.8,28.2,29.93,NNW,333,2.0,5.0,83,0.00,,,0.00,Wunderground v.1.15,2013-03-02 05:47:00,
2013-03-01 23:48:00,32.7,28.1,29.93,NW,311,0.0,5.0,83,0.00,,,0.00,Wunderground v.1.15,2013-03-02 05:48:00,
2013-03-01 23:51:00,32.7,28.4,29.93,North,355,0.0,6.0,84,0.00,,,0.00,Wunderground v.1.15,2013-03-02 05:51:00,
2013-03-01 23:52:00,32.7,28.4,29.93,North,355,0.0,1.0,84,0.00,,,0.00,Wunderground v.1.15,2013-03-02 05:52:00,
2013-03-01 23:53:00,32.6,28.3,29.93,North,350,0.0,1.0,84,0.00,,,0.00,Wunderground v.1.15,2013-03-02 05:53:00,
2013-03-01 23:56:00,32.6,28.3,29.93,NW,315,0.0,1.0,84,0.00,,,0.00,Wunderground v.1.15,2013-03-02 05:56:00,
2013-03-01 23:57:00,32.6,28.3,29.93,WNW,302,0.0,1.0,84,0.00,,,0.00,Wunderground v.1.15,2013-03-02 05:57:00,
2013-03-01 23:58:00,32.5,28.2,29.93,NW,322,0.0,5.0,84,0.00,,,0.00,Wunderground v.1.15,2013-03-02 05:58:00,